<?xml version="1.0" encoding="UTF-8" standalone="no" ?>
<gpx xmlns="http://www.topografix.com/GPX/1/1" xmlns:xsi="http://www.w3.org/2001/XMLSchema-instance" xsi:schemaLocation="http://www.topografix.com/GPX/1/1 http://www.topografix.com/GPX/1/1/gpx.xsd" version="1.1" creator="VisuGPX - https://www.visugpx.com">
  <metadata>
    <name>Cala Luna</name>
    <desc><![CDATA[Très mauvaise descente sur Cala Luna (Sardaigne). À éviter en VTT...]]></desc>
  </metadata>
  <wpt lat="40.17233" lon="9.56108">
    <ele>245.1</ele>
    <name><![CDATA[Ponte]]></name>
  </wpt>
  <trk>
    <name><![CDATA[Cala Luna]]></name>
    <trkseg>
      <trkpt lat="40.17261" lon="9.5272">
        <ele>952</ele>
        <time>2012-10-29T10:17:53Z</time>
      </trkpt>
      <trkpt lat="40.17256" lon="9.52716">
        <ele>958.6</ele>
        <time>2012-10-29T10:20:52Z</time>
      </trkpt>
      <trkpt lat="40.17259" lon="9.52711">
        <ele>954.3</ele>
        <time>2012-10-29T10:24:45Z</time>
      </trkpt>
      <trkpt lat="40.17262" lon="9.52709">
        <ele>954.8</ele>
        <time>2012-10-29T10:24:59Z</time>
      </trkpt>
      <trkpt lat="40.17269" lon="9.52717">
        <ele>954.8</ele>
        <time>2012-10-29T10:25:02Z</time>
      </trkpt>
      <trkpt lat="40.17278" lon="9.52725">
        <ele>955</ele>
        <time>2012-10-29T10:25:07Z</time>
      </trkpt>
      <trkpt lat="40.17261" lon="9.52713">
        <ele>954</ele>
        <time>2012-10-29T10:25:15Z</time>
      </trkpt>
      <trkpt lat="40.17258" lon="9.52715">
        <ele>954.3</ele>
        <time>2012-10-29T10:25:16Z</time>
      </trkpt>
      <trkpt lat="40.17256" lon="9.52718">
        <ele>954.1</ele>
        <time>2012-10-29T10:25:17Z</time>
      </trkpt>
      <trkpt lat="40.17259" lon="9.52729">
        <ele>953.4</ele>
        <time>2012-10-29T10:25:19Z</time>
      </trkpt>
      <trkpt lat="40.17273" lon="9.52761">
        <ele>952.2</ele>
        <time>2012-10-29T10:25:24Z</time>
      </trkpt>
      <trkpt lat="40.17278" lon="9.52776">
        <ele>951.4</ele>
        <time>2012-10-29T10:25:26Z</time>
      </trkpt>
      <trkpt lat="40.17277" lon="9.52782">
        <ele>950.7</ele>
        <time>2012-10-29T10:25:27Z</time>
      </trkpt>
      <trkpt lat="40.17273" lon="9.52787">
        <ele>950</ele>
        <time>2012-10-29T10:25:28Z</time>
      </trkpt>
      <trkpt lat="40.17268" lon="9.52788">
        <ele>949.6</ele>
        <time>2012-10-29T10:25:29Z</time>
      </trkpt>
      <trkpt lat="40.17243" lon="9.52781">
        <ele>947.9</ele>
        <time>2012-10-29T10:25:33Z</time>
      </trkpt>
      <trkpt lat="40.17227" lon="9.52782">
        <ele>947.8</ele>
        <time>2012-10-29T10:25:36Z</time>
      </trkpt>
      <trkpt lat="40.17202" lon="9.52791">
        <ele>947.6</ele>
        <time>2012-10-29T10:25:44Z</time>
      </trkpt>
      <trkpt lat="40.17195" lon="9.52796">
        <ele>943.8</ele>
        <time>2012-10-29T10:26:13Z</time>
      </trkpt>
      <trkpt lat="40.17147" lon="9.52816">
        <ele>943.6</ele>
        <time>2012-10-29T10:26:25Z</time>
      </trkpt>
      <trkpt lat="40.17135" lon="9.52818">
        <ele>943</ele>
        <time>2012-10-29T10:26:27Z</time>
      </trkpt>
      <trkpt lat="40.17122" lon="9.52817">
        <ele>942.2</ele>
        <time>2012-10-29T10:26:29Z</time>
      </trkpt>
      <trkpt lat="40.17096" lon="9.52802">
        <ele>941.2</ele>
        <time>2012-10-29T10:26:33Z</time>
      </trkpt>
      <trkpt lat="40.17079" lon="9.52799">
        <ele>940.5</ele>
        <time>2012-10-29T10:26:35Z</time>
      </trkpt>
      <trkpt lat="40.17035" lon="9.5281">
        <ele>938.2</ele>
        <time>2012-10-29T10:26:41Z</time>
      </trkpt>
      <trkpt lat="40.17029" lon="9.52812">
        <ele>938</ele>
        <time>2012-10-29T10:26:42Z</time>
      </trkpt>
      <trkpt lat="40.17024" lon="9.52817">
        <ele>937.2</ele>
        <time>2012-10-29T10:26:43Z</time>
      </trkpt>
      <trkpt lat="40.17023" lon="9.52824">
        <ele>936.8</ele>
        <time>2012-10-29T10:26:44Z</time>
      </trkpt>
      <trkpt lat="40.17054" lon="9.52973">
        <ele>911.5</ele>
        <time>2012-10-29T10:27:03Z</time>
      </trkpt>
      <trkpt lat="40.17039" lon="9.53004">
        <ele>915.1</ele>
        <time>2012-10-29T10:27:07Z</time>
      </trkpt>
      <trkpt lat="40.17024" lon="9.53046">
        <ele>915.1</ele>
        <time>2012-10-29T10:27:12Z</time>
      </trkpt>
      <trkpt lat="40.17011" lon="9.53066">
        <ele>915.6</ele>
        <time>2012-10-29T10:27:15Z</time>
      </trkpt>
      <trkpt lat="40.16993" lon="9.53081">
        <ele>916.3</ele>
        <time>2012-10-29T10:27:18Z</time>
      </trkpt>
      <trkpt lat="40.16934" lon="9.53123">
        <ele>917.3</ele>
        <time>2012-10-29T10:27:27Z</time>
      </trkpt>
      <trkpt lat="40.16911" lon="9.53144">
        <ele>917.7</ele>
        <time>2012-10-29T10:27:31Z</time>
      </trkpt>
      <trkpt lat="40.16902" lon="9.53156">
        <ele>917.1</ele>
        <time>2012-10-29T10:27:33Z</time>
      </trkpt>
      <trkpt lat="40.16891" lon="9.53174">
        <ele>916.3</ele>
        <time>2012-10-29T10:27:36Z</time>
      </trkpt>
      <trkpt lat="40.1689" lon="9.5318">
        <ele>915.7</ele>
        <time>2012-10-29T10:31:02Z</time>
      </trkpt>
      <trkpt lat="40.16876" lon="9.53203">
        <ele>914.7</ele>
        <time>2012-10-29T10:31:06Z</time>
      </trkpt>
      <trkpt lat="40.16845" lon="9.53266">
        <ele>913.5</ele>
        <time>2012-10-29T10:31:14Z</time>
      </trkpt>
      <trkpt lat="40.16819" lon="9.53314">
        <ele>912.5</ele>
        <time>2012-10-29T10:31:20Z</time>
      </trkpt>
      <trkpt lat="40.16808" lon="9.53342">
        <ele>911.8</ele>
        <time>2012-10-29T10:31:23Z</time>
      </trkpt>
      <trkpt lat="40.16796" lon="9.53403">
        <ele>908.4</ele>
        <time>2012-10-29T10:31:29Z</time>
      </trkpt>
      <trkpt lat="40.16795" lon="9.53413">
        <ele>907.8</ele>
        <time>2012-10-29T10:31:30Z</time>
      </trkpt>
      <trkpt lat="40.16794" lon="9.53435">
        <ele>906</ele>
        <time>2012-10-29T10:31:32Z</time>
      </trkpt>
      <trkpt lat="40.1679" lon="9.53452">
        <ele>905.1</ele>
        <time>2012-10-29T10:31:34Z</time>
      </trkpt>
      <trkpt lat="40.16753" lon="9.53503">
        <ele>901.6</ele>
        <time>2012-10-29T10:31:41Z</time>
      </trkpt>
      <trkpt lat="40.16746" lon="9.53516">
        <ele>901.4</ele>
        <time>2012-10-29T10:31:44Z</time>
      </trkpt>
      <trkpt lat="40.16747" lon="9.53521">
        <ele>901.4</ele>
        <time>2012-10-29T10:32:23Z</time>
      </trkpt>
      <trkpt lat="40.16776" lon="9.53532">
        <ele>899.8</ele>
        <time>2012-10-29T10:32:29Z</time>
      </trkpt>
      <trkpt lat="40.1678" lon="9.53536">
        <ele>899.5</ele>
        <time>2012-10-29T10:32:30Z</time>
      </trkpt>
      <trkpt lat="40.16783" lon="9.53542">
        <ele>899.2</ele>
        <time>2012-10-29T10:32:31Z</time>
      </trkpt>
      <trkpt lat="40.16785" lon="9.53548">
        <ele>898.9</ele>
        <time>2012-10-29T10:32:32Z</time>
      </trkpt>
      <trkpt lat="40.16783" lon="9.53565">
        <ele>898</ele>
        <time>2012-10-29T10:32:34Z</time>
      </trkpt>
      <trkpt lat="40.1678" lon="9.53581">
        <ele>896.9</ele>
        <time>2012-10-29T10:32:36Z</time>
      </trkpt>
      <trkpt lat="40.16777" lon="9.53588">
        <ele>896.9</ele>
        <time>2012-10-29T10:32:37Z</time>
      </trkpt>
      <trkpt lat="40.16772" lon="9.53594">
        <ele>897</ele>
        <time>2012-10-29T10:32:38Z</time>
      </trkpt>
      <trkpt lat="40.16759" lon="9.53602">
        <ele>896.4</ele>
        <time>2012-10-29T10:32:40Z</time>
      </trkpt>
      <trkpt lat="40.16734" lon="9.53615">
        <ele>895.2</ele>
        <time>2012-10-29T10:32:43Z</time>
      </trkpt>
      <trkpt lat="40.16714" lon="9.53627">
        <ele>894.4</ele>
        <time>2012-10-29T10:32:46Z</time>
      </trkpt>
      <trkpt lat="40.16693" lon="9.53634">
        <ele>893.6</ele>
        <time>2012-10-29T10:32:49Z</time>
      </trkpt>
      <trkpt lat="40.16685" lon="9.53639">
        <ele>892.7</ele>
        <time>2012-10-29T10:32:50Z</time>
      </trkpt>
      <trkpt lat="40.16679" lon="9.53646">
        <ele>891.9</ele>
        <time>2012-10-29T10:32:51Z</time>
      </trkpt>
      <trkpt lat="40.16675" lon="9.53653">
        <ele>891.2</ele>
        <time>2012-10-29T10:32:52Z</time>
      </trkpt>
      <trkpt lat="40.16672" lon="9.53685">
        <ele>888.8</ele>
        <time>2012-10-29T10:32:55Z</time>
      </trkpt>
      <trkpt lat="40.16666" lon="9.53718">
        <ele>885.8</ele>
        <time>2012-10-29T10:32:58Z</time>
      </trkpt>
      <trkpt lat="40.16666" lon="9.53746">
        <ele>882.7</ele>
        <time>2012-10-29T10:33:01Z</time>
      </trkpt>
      <trkpt lat="40.16664" lon="9.53757">
        <ele>881.5</ele>
        <time>2012-10-29T10:33:03Z</time>
      </trkpt>
      <trkpt lat="40.16667" lon="9.5377">
        <ele>881</ele>
        <time>2012-10-29T10:33:05Z</time>
      </trkpt>
      <trkpt lat="40.16674" lon="9.53782">
        <ele>878.9</ele>
        <time>2012-10-29T10:33:07Z</time>
      </trkpt>
      <trkpt lat="40.16684" lon="9.53791">
        <ele>877.6</ele>
        <time>2012-10-29T10:33:09Z</time>
      </trkpt>
      <trkpt lat="40.16694" lon="9.53798">
        <ele>876.7</ele>
        <time>2012-10-29T10:33:11Z</time>
      </trkpt>
      <trkpt lat="40.16714" lon="9.53804">
        <ele>875.4</ele>
        <time>2012-10-29T10:33:14Z</time>
      </trkpt>
      <trkpt lat="40.1673" lon="9.53804">
        <ele>873.7</ele>
        <time>2012-10-29T10:33:16Z</time>
      </trkpt>
      <trkpt lat="40.16755" lon="9.53796">
        <ele>870.9</ele>
        <time>2012-10-29T10:33:19Z</time>
      </trkpt>
      <trkpt lat="40.16764" lon="9.53796">
        <ele>870.2</ele>
        <time>2012-10-29T10:33:20Z</time>
      </trkpt>
      <trkpt lat="40.16781" lon="9.53801">
        <ele>868.7</ele>
        <time>2012-10-29T10:33:22Z</time>
      </trkpt>
      <trkpt lat="40.16795" lon="9.53812">
        <ele>868</ele>
        <time>2012-10-29T10:33:24Z</time>
      </trkpt>
      <trkpt lat="40.16802" lon="9.53815">
        <ele>867.1</ele>
        <time>2012-10-29T10:33:25Z</time>
      </trkpt>
      <trkpt lat="40.16822" lon="9.53807">
        <ele>864.5</ele>
        <time>2012-10-29T10:33:28Z</time>
      </trkpt>
      <trkpt lat="40.16827" lon="9.53807">
        <ele>863.8</ele>
        <time>2012-10-29T10:33:29Z</time>
      </trkpt>
      <trkpt lat="40.16832" lon="9.53809">
        <ele>862.3</ele>
        <time>2012-10-29T10:33:30Z</time>
      </trkpt>
      <trkpt lat="40.16836" lon="9.53813">
        <ele>861.4</ele>
        <time>2012-10-29T10:33:31Z</time>
      </trkpt>
      <trkpt lat="40.16837" lon="9.53818">
        <ele>861.1</ele>
        <time>2012-10-29T10:33:32Z</time>
      </trkpt>
      <trkpt lat="40.16833" lon="9.53831">
        <ele>860.4</ele>
        <time>2012-10-29T10:33:34Z</time>
      </trkpt>
      <trkpt lat="40.16833" lon="9.53838">
        <ele>860</ele>
        <time>2012-10-29T10:33:35Z</time>
      </trkpt>
      <trkpt lat="40.16837" lon="9.53845">
        <ele>859.3</ele>
        <time>2012-10-29T10:33:36Z</time>
      </trkpt>
      <trkpt lat="40.16843" lon="9.5385">
        <ele>858.5</ele>
        <time>2012-10-29T10:33:37Z</time>
      </trkpt>
      <trkpt lat="40.16863" lon="9.53861">
        <ele>856</ele>
        <time>2012-10-29T10:33:40Z</time>
      </trkpt>
      <trkpt lat="40.16867" lon="9.53865">
        <ele>854.8</ele>
        <time>2012-10-29T10:33:41Z</time>
      </trkpt>
      <trkpt lat="40.16868" lon="9.53872">
        <ele>853.7</ele>
        <time>2012-10-29T10:33:42Z</time>
      </trkpt>
      <trkpt lat="40.16868" lon="9.53879">
        <ele>852.6</ele>
        <time>2012-10-29T10:33:43Z</time>
      </trkpt>
      <trkpt lat="40.16858" lon="9.53939">
        <ele>845.2</ele>
        <time>2012-10-29T10:33:51Z</time>
      </trkpt>
      <trkpt lat="40.16845" lon="9.5398">
        <ele>841.6</ele>
        <time>2012-10-29T10:33:55Z</time>
      </trkpt>
      <trkpt lat="40.16827" lon="9.54059">
        <ele>833.4</ele>
        <time>2012-10-29T10:34:03Z</time>
      </trkpt>
      <trkpt lat="40.16825" lon="9.54066">
        <ele>832.8</ele>
        <time>2012-10-29T10:34:05Z</time>
      </trkpt>
      <trkpt lat="40.16809" lon="9.54078">
        <ele>829.2</ele>
        <time>2012-10-29T10:34:26Z</time>
      </trkpt>
      <trkpt lat="40.1679" lon="9.5408">
        <ele>828.4</ele>
        <time>2012-10-29T10:34:32Z</time>
      </trkpt>
      <trkpt lat="40.16773" lon="9.54087">
        <ele>827.1</ele>
        <time>2012-10-29T10:34:35Z</time>
      </trkpt>
      <trkpt lat="40.16767" lon="9.54087">
        <ele>826.8</ele>
        <time>2012-10-29T10:34:36Z</time>
      </trkpt>
      <trkpt lat="40.16761" lon="9.54084">
        <ele>826.6</ele>
        <time>2012-10-29T10:34:37Z</time>
      </trkpt>
      <trkpt lat="40.16746" lon="9.54068">
        <ele>825.7</ele>
        <time>2012-10-29T10:34:40Z</time>
      </trkpt>
      <trkpt lat="40.16731" lon="9.5405">
        <ele>824.6</ele>
        <time>2012-10-29T10:34:43Z</time>
      </trkpt>
      <trkpt lat="40.16719" lon="9.54039">
        <ele>824</ele>
        <time>2012-10-29T10:34:45Z</time>
      </trkpt>
      <trkpt lat="40.16696" lon="9.54004">
        <ele>822.3</ele>
        <time>2012-10-29T10:34:50Z</time>
      </trkpt>
      <trkpt lat="40.16684" lon="9.53993">
        <ele>821.7</ele>
        <time>2012-10-29T10:34:52Z</time>
      </trkpt>
      <trkpt lat="40.16665" lon="9.53979">
        <ele>821.1</ele>
        <time>2012-10-29T10:34:55Z</time>
      </trkpt>
      <trkpt lat="40.16652" lon="9.53973">
        <ele>820.5</ele>
        <time>2012-10-29T10:34:57Z</time>
      </trkpt>
      <trkpt lat="40.16647" lon="9.53973">
        <ele>820.3</ele>
        <time>2012-10-29T10:34:58Z</time>
      </trkpt>
      <trkpt lat="40.16644" lon="9.53977">
        <ele>819.7</ele>
        <time>2012-10-29T10:34:59Z</time>
      </trkpt>
      <trkpt lat="40.16643" lon="9.53983">
        <ele>819</ele>
        <time>2012-10-29T10:35:00Z</time>
      </trkpt>
      <trkpt lat="40.16646" lon="9.53991">
        <ele>817.6</ele>
        <time>2012-10-29T10:35:01Z</time>
      </trkpt>
      <trkpt lat="40.1665" lon="9.53996">
        <ele>816.8</ele>
        <time>2012-10-29T10:35:02Z</time>
      </trkpt>
      <trkpt lat="40.1667" lon="9.54018">
        <ele>813</ele>
        <time>2012-10-29T10:35:06Z</time>
      </trkpt>
      <trkpt lat="40.16675" lon="9.54027">
        <ele>812.3</ele>
        <time>2012-10-29T10:35:07Z</time>
      </trkpt>
      <trkpt lat="40.16678" lon="9.54037">
        <ele>811.9</ele>
        <time>2012-10-29T10:35:08Z</time>
      </trkpt>
      <trkpt lat="40.16678" lon="9.54047">
        <ele>811.1</ele>
        <time>2012-10-29T10:35:09Z</time>
      </trkpt>
      <trkpt lat="40.16675" lon="9.54058">
        <ele>810.7</ele>
        <time>2012-10-29T10:35:10Z</time>
      </trkpt>
      <trkpt lat="40.16674" lon="9.54069">
        <ele>810.5</ele>
        <time>2012-10-29T10:35:11Z</time>
      </trkpt>
      <trkpt lat="40.16675" lon="9.54092">
        <ele>808.5</ele>
        <time>2012-10-29T10:35:13Z</time>
      </trkpt>
      <trkpt lat="40.16672" lon="9.54114">
        <ele>806.9</ele>
        <time>2012-10-29T10:35:15Z</time>
      </trkpt>
      <trkpt lat="40.16674" lon="9.54124">
        <ele>806.2</ele>
        <time>2012-10-29T10:35:16Z</time>
      </trkpt>
      <trkpt lat="40.16677" lon="9.54133">
        <ele>805.6</ele>
        <time>2012-10-29T10:35:17Z</time>
      </trkpt>
      <trkpt lat="40.16683" lon="9.5414">
        <ele>804.6</ele>
        <time>2012-10-29T10:35:18Z</time>
      </trkpt>
      <trkpt lat="40.16705" lon="9.54155">
        <ele>801.5</ele>
        <time>2012-10-29T10:35:21Z</time>
      </trkpt>
      <trkpt lat="40.16712" lon="9.54161">
        <ele>800.5</ele>
        <time>2012-10-29T10:35:22Z</time>
      </trkpt>
      <trkpt lat="40.16734" lon="9.54183">
        <ele>796.8</ele>
        <time>2012-10-29T10:35:25Z</time>
      </trkpt>
      <trkpt lat="40.16739" lon="9.54191">
        <ele>796.2</ele>
        <time>2012-10-29T10:35:26Z</time>
      </trkpt>
      <trkpt lat="40.16741" lon="9.54199">
        <ele>795.7</ele>
        <time>2012-10-29T10:35:27Z</time>
      </trkpt>
      <trkpt lat="40.16743" lon="9.54228">
        <ele>794.3</ele>
        <time>2012-10-29T10:35:30Z</time>
      </trkpt>
      <trkpt lat="40.16751" lon="9.54274">
        <ele>792.2</ele>
        <time>2012-10-29T10:35:34Z</time>
      </trkpt>
      <trkpt lat="40.16766" lon="9.54322">
        <ele>788</ele>
        <time>2012-10-29T10:35:38Z</time>
      </trkpt>
      <trkpt lat="40.16775" lon="9.54353">
        <ele>785.6</ele>
        <time>2012-10-29T10:35:41Z</time>
      </trkpt>
      <trkpt lat="40.16778" lon="9.5436">
        <ele>784.4</ele>
        <time>2012-10-29T10:35:42Z</time>
      </trkpt>
      <trkpt lat="40.16788" lon="9.54369">
        <ele>781</ele>
        <time>2012-10-29T10:35:44Z</time>
      </trkpt>
      <trkpt lat="40.16792" lon="9.54375">
        <ele>779.7</ele>
        <time>2012-10-29T10:35:45Z</time>
      </trkpt>
      <trkpt lat="40.16801" lon="9.54389">
        <ele>777.1</ele>
        <time>2012-10-29T10:35:47Z</time>
      </trkpt>
      <trkpt lat="40.16809" lon="9.54407">
        <ele>775</ele>
        <time>2012-10-29T10:35:49Z</time>
      </trkpt>
      <trkpt lat="40.16818" lon="9.54462">
        <ele>772.3</ele>
        <time>2012-10-29T10:35:54Z</time>
      </trkpt>
      <trkpt lat="40.16821" lon="9.54507">
        <ele>769.2</ele>
        <time>2012-10-29T10:35:58Z</time>
      </trkpt>
      <trkpt lat="40.16827" lon="9.54527">
        <ele>766.3</ele>
        <time>2012-10-29T10:36:00Z</time>
      </trkpt>
      <trkpt lat="40.16832" lon="9.54536">
        <ele>764.2</ele>
        <time>2012-10-29T10:36:01Z</time>
      </trkpt>
      <trkpt lat="40.16838" lon="9.54542">
        <ele>763.3</ele>
        <time>2012-10-29T10:36:02Z</time>
      </trkpt>
      <trkpt lat="40.16845" lon="9.54546">
        <ele>762.5</ele>
        <time>2012-10-29T10:36:03Z</time>
      </trkpt>
      <trkpt lat="40.16861" lon="9.54551">
        <ele>760.6</ele>
        <time>2012-10-29T10:36:05Z</time>
      </trkpt>
      <trkpt lat="40.1688" lon="9.54553">
        <ele>758.8</ele>
        <time>2012-10-29T10:36:07Z</time>
      </trkpt>
      <trkpt lat="40.16889" lon="9.54557">
        <ele>757.2</ele>
        <time>2012-10-29T10:36:08Z</time>
      </trkpt>
      <trkpt lat="40.16912" lon="9.5457">
        <ele>752.5</ele>
        <time>2012-10-29T10:36:11Z</time>
      </trkpt>
      <trkpt lat="40.16914" lon="9.54575">
        <ele>749.7</ele>
        <time>2012-10-29T10:36:18Z</time>
      </trkpt>
      <trkpt lat="40.16913" lon="9.54577">
        <ele>749.4</ele>
        <time>2012-10-29T10:36:19Z</time>
      </trkpt>
      <trkpt lat="40.16907" lon="9.54577">
        <ele>748.5</ele>
        <time>2012-10-29T10:36:21Z</time>
      </trkpt>
      <trkpt lat="40.16889" lon="9.54573">
        <ele>747.4</ele>
        <time>2012-10-29T10:36:25Z</time>
      </trkpt>
      <trkpt lat="40.16878" lon="9.54574">
        <ele>746.9</ele>
        <time>2012-10-29T10:36:27Z</time>
      </trkpt>
      <trkpt lat="40.16873" lon="9.54575">
        <ele>746.9</ele>
        <time>2012-10-29T10:36:28Z</time>
      </trkpt>
      <trkpt lat="40.16853" lon="9.54586">
        <ele>742.5</ele>
        <time>2012-10-29T10:39:33Z</time>
      </trkpt>
      <trkpt lat="40.1685" lon="9.54586">
        <ele>742.3</ele>
        <time>2012-10-29T10:39:34Z</time>
      </trkpt>
      <trkpt lat="40.16837" lon="9.54584">
        <ele>742.2</ele>
        <time>2012-10-29T10:39:37Z</time>
      </trkpt>
      <trkpt lat="40.16816" lon="9.54571">
        <ele>741.7</ele>
        <time>2012-10-29T10:39:42Z</time>
      </trkpt>
      <trkpt lat="40.16812" lon="9.54568">
        <ele>741.7</ele>
        <time>2012-10-29T10:39:43Z</time>
      </trkpt>
      <trkpt lat="40.16769" lon="9.54482">
        <ele>743.5</ele>
        <time>2012-10-29T10:40:02Z</time>
      </trkpt>
      <trkpt lat="40.16765" lon="9.54477">
        <ele>744</ele>
        <time>2012-10-29T10:40:04Z</time>
      </trkpt>
      <trkpt lat="40.16762" lon="9.54471">
        <ele>744</ele>
        <time>2012-10-29T10:40:13Z</time>
      </trkpt>
      <trkpt lat="40.16759" lon="9.5447">
        <ele>743.5</ele>
        <time>2012-10-29T10:40:14Z</time>
      </trkpt>
      <trkpt lat="40.16723" lon="9.54477">
        <ele>741.9</ele>
        <time>2012-10-29T10:40:20Z</time>
      </trkpt>
      <trkpt lat="40.16687" lon="9.54476">
        <ele>740.1</ele>
        <time>2012-10-29T10:40:25Z</time>
      </trkpt>
      <trkpt lat="40.16681" lon="9.54477">
        <ele>739.8</ele>
        <time>2012-10-29T10:40:26Z</time>
      </trkpt>
      <trkpt lat="40.16676" lon="9.5448">
        <ele>739.6</ele>
        <time>2012-10-29T10:40:27Z</time>
      </trkpt>
      <trkpt lat="40.16673" lon="9.54487">
        <ele>738.7</ele>
        <time>2012-10-29T10:40:28Z</time>
      </trkpt>
      <trkpt lat="40.16672" lon="9.54498">
        <ele>736.4</ele>
        <time>2012-10-29T10:40:29Z</time>
      </trkpt>
      <trkpt lat="40.16667" lon="9.54514">
        <ele>734.6</ele>
        <time>2012-10-29T10:40:31Z</time>
      </trkpt>
      <trkpt lat="40.16666" lon="9.54539">
        <ele>732.5</ele>
        <time>2012-10-29T10:40:34Z</time>
      </trkpt>
      <trkpt lat="40.16662" lon="9.54556">
        <ele>730.7</ele>
        <time>2012-10-29T10:40:36Z</time>
      </trkpt>
      <trkpt lat="40.16661" lon="9.54565">
        <ele>729.9</ele>
        <time>2012-10-29T10:40:37Z</time>
      </trkpt>
      <trkpt lat="40.16662" lon="9.54574">
        <ele>729.2</ele>
        <time>2012-10-29T10:40:38Z</time>
      </trkpt>
      <trkpt lat="40.16665" lon="9.54582">
        <ele>728.7</ele>
        <time>2012-10-29T10:40:39Z</time>
      </trkpt>
      <trkpt lat="40.16674" lon="9.54597">
        <ele>727.3</ele>
        <time>2012-10-29T10:40:41Z</time>
      </trkpt>
      <trkpt lat="40.1668" lon="9.54616">
        <ele>725.1</ele>
        <time>2012-10-29T10:40:43Z</time>
      </trkpt>
      <trkpt lat="40.16684" lon="9.54624">
        <ele>723.8</ele>
        <time>2012-10-29T10:40:44Z</time>
      </trkpt>
      <trkpt lat="40.1669" lon="9.54631">
        <ele>722.2</ele>
        <time>2012-10-29T10:40:45Z</time>
      </trkpt>
      <trkpt lat="40.16696" lon="9.54636">
        <ele>721</ele>
        <time>2012-10-29T10:40:46Z</time>
      </trkpt>
      <trkpt lat="40.16718" lon="9.5464">
        <ele>717.6</ele>
        <time>2012-10-29T10:40:49Z</time>
      </trkpt>
      <trkpt lat="40.16725" lon="9.54645">
        <ele>716.4</ele>
        <time>2012-10-29T10:40:50Z</time>
      </trkpt>
      <trkpt lat="40.16731" lon="9.54652">
        <ele>715.4</ele>
        <time>2012-10-29T10:40:51Z</time>
      </trkpt>
      <trkpt lat="40.16742" lon="9.54668">
        <ele>713.2</ele>
        <time>2012-10-29T10:40:53Z</time>
      </trkpt>
      <trkpt lat="40.16756" lon="9.54693">
        <ele>710.4</ele>
        <time>2012-10-29T10:40:56Z</time>
      </trkpt>
      <trkpt lat="40.16761" lon="9.54699">
        <ele>710.2</ele>
        <time>2012-10-29T10:40:57Z</time>
      </trkpt>
      <trkpt lat="40.16787" lon="9.54711">
        <ele>707.8</ele>
        <time>2012-10-29T10:41:01Z</time>
      </trkpt>
      <trkpt lat="40.16798" lon="9.54722">
        <ele>706.9</ele>
        <time>2012-10-29T10:41:03Z</time>
      </trkpt>
      <trkpt lat="40.16802" lon="9.54729">
        <ele>706.1</ele>
        <time>2012-10-29T10:41:04Z</time>
      </trkpt>
      <trkpt lat="40.16804" lon="9.54738">
        <ele>705.2</ele>
        <time>2012-10-29T10:41:05Z</time>
      </trkpt>
      <trkpt lat="40.16802" lon="9.54766">
        <ele>701.9</ele>
        <time>2012-10-29T10:41:08Z</time>
      </trkpt>
      <trkpt lat="40.16805" lon="9.54774">
        <ele>701.2</ele>
        <time>2012-10-29T10:41:09Z</time>
      </trkpt>
      <trkpt lat="40.16811" lon="9.54779">
        <ele>700.7</ele>
        <time>2012-10-29T10:41:10Z</time>
      </trkpt>
      <trkpt lat="40.16817" lon="9.54782">
        <ele>699.9</ele>
        <time>2012-10-29T10:41:11Z</time>
      </trkpt>
      <trkpt lat="40.16824" lon="9.54783">
        <ele>699.6</ele>
        <time>2012-10-29T10:41:12Z</time>
      </trkpt>
      <trkpt lat="40.16836" lon="9.54779">
        <ele>699.1</ele>
        <time>2012-10-29T10:41:14Z</time>
      </trkpt>
      <trkpt lat="40.16848" lon="9.54769">
        <ele>697.8</ele>
        <time>2012-10-29T10:41:16Z</time>
      </trkpt>
      <trkpt lat="40.16858" lon="9.54754">
        <ele>696.5</ele>
        <time>2012-10-29T10:41:18Z</time>
      </trkpt>
      <trkpt lat="40.16864" lon="9.54751">
        <ele>695.7</ele>
        <time>2012-10-29T10:41:19Z</time>
      </trkpt>
      <trkpt lat="40.16882" lon="9.54755">
        <ele>693.8</ele>
        <time>2012-10-29T10:41:22Z</time>
      </trkpt>
      <trkpt lat="40.16893" lon="9.54752">
        <ele>693.6</ele>
        <time>2012-10-29T10:41:24Z</time>
      </trkpt>
      <trkpt lat="40.16904" lon="9.54747">
        <ele>693</ele>
        <time>2012-10-29T10:41:26Z</time>
      </trkpt>
      <trkpt lat="40.16912" lon="9.5475">
        <ele>692.5</ele>
        <time>2012-10-29T10:41:28Z</time>
      </trkpt>
      <trkpt lat="40.16919" lon="9.54758">
        <ele>692.1</ele>
        <time>2012-10-29T10:41:30Z</time>
      </trkpt>
      <trkpt lat="40.16926" lon="9.5477">
        <ele>691.1</ele>
        <time>2012-10-29T10:41:32Z</time>
      </trkpt>
      <trkpt lat="40.16928" lon="9.54778">
        <ele>690.5</ele>
        <time>2012-10-29T10:41:33Z</time>
      </trkpt>
      <trkpt lat="40.16929" lon="9.54788">
        <ele>689.6</ele>
        <time>2012-10-29T10:41:34Z</time>
      </trkpt>
      <trkpt lat="40.16928" lon="9.54804">
        <ele>688.1</ele>
        <time>2012-10-29T10:41:36Z</time>
      </trkpt>
      <trkpt lat="40.1693" lon="9.54811">
        <ele>687.6</ele>
        <time>2012-10-29T10:41:37Z</time>
      </trkpt>
      <trkpt lat="40.16938" lon="9.54827">
        <ele>685.6</ele>
        <time>2012-10-29T10:41:39Z</time>
      </trkpt>
      <trkpt lat="40.1696" lon="9.54859">
        <ele>679.9</ele>
        <time>2012-10-29T10:41:44Z</time>
      </trkpt>
      <trkpt lat="40.16959" lon="9.54864">
        <ele>679.2</ele>
        <time>2012-10-29T10:41:45Z</time>
      </trkpt>
      <trkpt lat="40.16956" lon="9.54867">
        <ele>677.7</ele>
        <time>2012-10-29T10:41:46Z</time>
      </trkpt>
      <trkpt lat="40.16937" lon="9.54881">
        <ele>674.4</ele>
        <time>2012-10-29T10:41:50Z</time>
      </trkpt>
      <trkpt lat="40.16931" lon="9.54883">
        <ele>673.7</ele>
        <time>2012-10-29T10:41:51Z</time>
      </trkpt>
      <trkpt lat="40.16904" lon="9.54883">
        <ele>671.4</ele>
        <time>2012-10-29T10:41:55Z</time>
      </trkpt>
      <trkpt lat="40.16901" lon="9.5488">
        <ele>671</ele>
        <time>2012-10-29T10:41:56Z</time>
      </trkpt>
      <trkpt lat="40.16896" lon="9.54871">
        <ele>669.7</ele>
        <time>2012-10-29T10:41:58Z</time>
      </trkpt>
      <trkpt lat="40.16892" lon="9.5487">
        <ele>669.3</ele>
        <time>2012-10-29T10:41:59Z</time>
      </trkpt>
      <trkpt lat="40.16889" lon="9.54871">
        <ele>669.1</ele>
        <time>2012-10-29T10:42:00Z</time>
      </trkpt>
      <trkpt lat="40.16881" lon="9.54886">
        <ele>667.3</ele>
        <time>2012-10-29T10:42:03Z</time>
      </trkpt>
      <trkpt lat="40.16873" lon="9.54906">
        <ele>665.6</ele>
        <time>2012-10-29T10:42:06Z</time>
      </trkpt>
      <trkpt lat="40.1687" lon="9.5492">
        <ele>665</ele>
        <time>2012-10-29T10:42:08Z</time>
      </trkpt>
      <trkpt lat="40.16872" lon="9.54927">
        <ele>664.5</ele>
        <time>2012-10-29T10:42:09Z</time>
      </trkpt>
      <trkpt lat="40.16877" lon="9.54942">
        <ele>663.4</ele>
        <time>2012-10-29T10:42:11Z</time>
      </trkpt>
      <trkpt lat="40.16881" lon="9.54949">
        <ele>663.2</ele>
        <time>2012-10-29T10:42:12Z</time>
      </trkpt>
      <trkpt lat="40.16891" lon="9.54959">
        <ele>662</ele>
        <time>2012-10-29T10:42:14Z</time>
      </trkpt>
      <trkpt lat="40.16893" lon="9.54965">
        <ele>661.4</ele>
        <time>2012-10-29T10:42:15Z</time>
      </trkpt>
      <trkpt lat="40.16898" lon="9.54989">
        <ele>658.2</ele>
        <time>2012-10-29T10:42:19Z</time>
      </trkpt>
      <trkpt lat="40.16898" lon="9.54994">
        <ele>657.1</ele>
        <time>2012-10-29T10:42:20Z</time>
      </trkpt>
      <trkpt lat="40.16892" lon="9.55004">
        <ele>656.4</ele>
        <time>2012-10-29T10:42:22Z</time>
      </trkpt>
      <trkpt lat="40.16883" lon="9.55009">
        <ele>656</ele>
        <time>2012-10-29T10:42:24Z</time>
      </trkpt>
      <trkpt lat="40.16853" lon="9.55002">
        <ele>653.3</ele>
        <time>2012-10-29T10:42:29Z</time>
      </trkpt>
      <trkpt lat="40.16849" lon="9.54999">
        <ele>652.7</ele>
        <time>2012-10-29T10:42:30Z</time>
      </trkpt>
      <trkpt lat="40.16844" lon="9.5499">
        <ele>651.6</ele>
        <time>2012-10-29T10:42:32Z</time>
      </trkpt>
      <trkpt lat="40.16836" lon="9.54981">
        <ele>650.7</ele>
        <time>2012-10-29T10:42:34Z</time>
      </trkpt>
      <trkpt lat="40.16817" lon="9.54974">
        <ele>648.7</ele>
        <time>2012-10-29T10:42:38Z</time>
      </trkpt>
      <trkpt lat="40.16812" lon="9.5497">
        <ele>648.1</ele>
        <time>2012-10-29T10:42:39Z</time>
      </trkpt>
      <trkpt lat="40.16802" lon="9.54955">
        <ele>646.3</ele>
        <time>2012-10-29T10:42:42Z</time>
      </trkpt>
      <trkpt lat="40.1678" lon="9.54933">
        <ele>644.2</ele>
        <time>2012-10-29T10:42:47Z</time>
      </trkpt>
      <trkpt lat="40.16757" lon="9.54921">
        <ele>642.9</ele>
        <time>2012-10-29T10:42:51Z</time>
      </trkpt>
      <trkpt lat="40.16752" lon="9.5492">
        <ele>642.4</ele>
        <time>2012-10-29T10:42:52Z</time>
      </trkpt>
      <trkpt lat="40.16738" lon="9.54921">
        <ele>640.4</ele>
        <time>2012-10-29T10:42:55Z</time>
      </trkpt>
      <trkpt lat="40.16693" lon="9.54928">
        <ele>632.4</ele>
        <time>2012-10-29T10:43:06Z</time>
      </trkpt>
      <trkpt lat="40.16675" lon="9.54932">
        <ele>626.2</ele>
        <time>2012-10-29T10:43:48Z</time>
      </trkpt>
      <trkpt lat="40.16671" lon="9.54936">
        <ele>618</ele>
        <time>2012-10-29T10:43:50Z</time>
      </trkpt>
      <trkpt lat="40.16663" lon="9.54956">
        <ele>616.1</ele>
        <time>2012-10-29T10:43:55Z</time>
      </trkpt>
      <trkpt lat="40.1665" lon="9.54964">
        <ele>614.4</ele>
        <time>2012-10-29T10:44:09Z</time>
      </trkpt>
      <trkpt lat="40.16641" lon="9.54983">
        <ele>612.1</ele>
        <time>2012-10-29T10:44:15Z</time>
      </trkpt>
      <trkpt lat="40.16639" lon="9.54989">
        <ele>611</ele>
        <time>2012-10-29T10:44:18Z</time>
      </trkpt>
      <trkpt lat="40.16643" lon="9.55009">
        <ele>609</ele>
        <time>2012-10-29T10:44:25Z</time>
      </trkpt>
      <trkpt lat="40.16642" lon="9.55016">
        <ele>608.1</ele>
        <time>2012-10-29T10:44:27Z</time>
      </trkpt>
      <trkpt lat="40.16639" lon="9.55023">
        <ele>606.8</ele>
        <time>2012-10-29T10:44:29Z</time>
      </trkpt>
      <trkpt lat="40.16633" lon="9.55026">
        <ele>606.4</ele>
        <time>2012-10-29T10:44:31Z</time>
      </trkpt>
      <trkpt lat="40.16623" lon="9.55022">
        <ele>605.5</ele>
        <time>2012-10-29T10:44:35Z</time>
      </trkpt>
      <trkpt lat="40.16614" lon="9.55027">
        <ele>604.3</ele>
        <time>2012-10-29T10:44:39Z</time>
      </trkpt>
      <trkpt lat="40.16612" lon="9.5503">
        <ele>603.8</ele>
        <time>2012-10-29T10:44:40Z</time>
      </trkpt>
      <trkpt lat="40.16612" lon="9.55055">
        <ele>602</ele>
        <time>2012-10-29T10:44:46Z</time>
      </trkpt>
      <trkpt lat="40.16614" lon="9.55063">
        <ele>601.1</ele>
        <time>2012-10-29T10:44:48Z</time>
      </trkpt>
      <trkpt lat="40.16616" lon="9.55066">
        <ele>600.4</ele>
        <time>2012-10-29T10:44:49Z</time>
      </trkpt>
      <trkpt lat="40.16627" lon="9.55073">
        <ele>597.5</ele>
        <time>2012-10-29T10:44:52Z</time>
      </trkpt>
      <trkpt lat="40.1665" lon="9.55075">
        <ele>594</ele>
        <time>2012-10-29T10:45:00Z</time>
      </trkpt>
      <trkpt lat="40.16654" lon="9.55078">
        <ele>592.5</ele>
        <time>2012-10-29T10:45:06Z</time>
      </trkpt>
      <trkpt lat="40.16654" lon="9.55083">
        <ele>587</ele>
        <time>2012-10-29T10:45:21Z</time>
      </trkpt>
      <trkpt lat="40.16649" lon="9.55102">
        <ele>584.4</ele>
        <time>2012-10-29T10:45:26Z</time>
      </trkpt>
      <trkpt lat="40.16638" lon="9.55119">
        <ele>582.6</ele>
        <time>2012-10-29T10:45:31Z</time>
      </trkpt>
      <trkpt lat="40.16625" lon="9.55164">
        <ele>576.9</ele>
        <time>2012-10-29T10:45:42Z</time>
      </trkpt>
      <trkpt lat="40.1662" lon="9.55177">
        <ele>575.1</ele>
        <time>2012-10-29T10:45:45Z</time>
      </trkpt>
      <trkpt lat="40.16609" lon="9.55195">
        <ele>572.9</ele>
        <time>2012-10-29T10:45:51Z</time>
      </trkpt>
      <trkpt lat="40.16607" lon="9.55201">
        <ele>571.2</ele>
        <time>2012-10-29T10:45:53Z</time>
      </trkpt>
      <trkpt lat="40.16609" lon="9.55208">
        <ele>570.4</ele>
        <time>2012-10-29T10:45:55Z</time>
      </trkpt>
      <trkpt lat="40.16614" lon="9.55214">
        <ele>568.5</ele>
        <time>2012-10-29T10:45:57Z</time>
      </trkpt>
      <trkpt lat="40.1662" lon="9.55216">
        <ele>567.5</ele>
        <time>2012-10-29T10:45:59Z</time>
      </trkpt>
      <trkpt lat="40.16624" lon="9.5522">
        <ele>566.6</ele>
        <time>2012-10-29T10:46:00Z</time>
      </trkpt>
      <trkpt lat="40.16627" lon="9.5522">
        <ele>566.1</ele>
        <time>2012-10-29T10:46:01Z</time>
      </trkpt>
      <trkpt lat="40.16639" lon="9.55215">
        <ele>564.2</ele>
        <time>2012-10-29T10:46:06Z</time>
      </trkpt>
      <trkpt lat="40.16655" lon="9.55219">
        <ele>561.4</ele>
        <time>2012-10-29T10:46:10Z</time>
      </trkpt>
      <trkpt lat="40.1666" lon="9.55219">
        <ele>560.6</ele>
        <time>2012-10-29T10:46:12Z</time>
      </trkpt>
      <trkpt lat="40.16673" lon="9.55223">
        <ele>558</ele>
        <time>2012-10-29T10:46:18Z</time>
      </trkpt>
      <trkpt lat="40.16676" lon="9.55235">
        <ele>555.4</ele>
        <time>2012-10-29T10:46:47Z</time>
      </trkpt>
      <trkpt lat="40.16682" lon="9.55239">
        <ele>545</ele>
        <time>2012-10-29T10:46:48Z</time>
      </trkpt>
      <trkpt lat="40.1669" lon="9.55246">
        <ele>543.5</ele>
        <time>2012-10-29T10:46:51Z</time>
      </trkpt>
      <trkpt lat="40.16709" lon="9.55275">
        <ele>533.9</ele>
        <time>2012-10-29T10:47:06Z</time>
      </trkpt>
      <trkpt lat="40.16717" lon="9.55278">
        <ele>532.1</ele>
        <time>2012-10-29T10:47:14Z</time>
      </trkpt>
      <trkpt lat="40.16722" lon="9.55274">
        <ele>528.4</ele>
        <time>2012-10-29T10:47:17Z</time>
      </trkpt>
      <trkpt lat="40.16727" lon="9.55267">
        <ele>528.5</ele>
        <time>2012-10-29T10:47:30Z</time>
      </trkpt>
      <trkpt lat="40.16764" lon="9.55288">
        <ele>526.6</ele>
        <time>2012-10-29T10:48:03Z</time>
      </trkpt>
      <trkpt lat="40.16766" lon="9.55296">
        <ele>528.7</ele>
        <time>2012-10-29T10:48:08Z</time>
      </trkpt>
      <trkpt lat="40.16774" lon="9.55312">
        <ele>520.4</ele>
        <time>2012-10-29T10:48:14Z</time>
      </trkpt>
      <trkpt lat="40.16779" lon="9.55339">
        <ele>516.9</ele>
        <time>2012-10-29T10:48:20Z</time>
      </trkpt>
      <trkpt lat="40.16789" lon="9.55374">
        <ele>516.1</ele>
        <time>2012-10-29T10:48:29Z</time>
      </trkpt>
      <trkpt lat="40.16792" lon="9.55378">
        <ele>515.6</ele>
        <time>2012-10-29T10:48:31Z</time>
      </trkpt>
      <trkpt lat="40.168" lon="9.55381">
        <ele>511.9</ele>
        <time>2012-10-29T10:48:36Z</time>
      </trkpt>
      <trkpt lat="40.16808" lon="9.55382">
        <ele>511.4</ele>
        <time>2012-10-29T10:48:40Z</time>
      </trkpt>
      <trkpt lat="40.16816" lon="9.55381">
        <ele>511.5</ele>
        <time>2012-10-29T10:48:47Z</time>
      </trkpt>
      <trkpt lat="40.16833" lon="9.55375">
        <ele>512.3</ele>
        <time>2012-10-29T10:49:13Z</time>
      </trkpt>
      <trkpt lat="40.16837" lon="9.55377">
        <ele>515.4</ele>
        <time>2012-10-29T10:50:30Z</time>
      </trkpt>
      <trkpt lat="40.16843" lon="9.55375">
        <ele>515.6</ele>
        <time>2012-10-29T10:50:35Z</time>
      </trkpt>
      <trkpt lat="40.16851" lon="9.5538">
        <ele>515.4</ele>
        <time>2012-10-29T10:50:43Z</time>
      </trkpt>
      <trkpt lat="40.16856" lon="9.55381">
        <ele>515.1</ele>
        <time>2012-10-29T10:50:48Z</time>
      </trkpt>
      <trkpt lat="40.16858" lon="9.55389">
        <ele>514.7</ele>
        <time>2012-10-29T10:50:55Z</time>
      </trkpt>
      <trkpt lat="40.16861" lon="9.55391">
        <ele>514.1</ele>
        <time>2012-10-29T10:51:00Z</time>
      </trkpt>
      <trkpt lat="40.1687" lon="9.55388">
        <ele>513.9</ele>
        <time>2012-10-29T10:51:07Z</time>
      </trkpt>
      <trkpt lat="40.16875" lon="9.55392">
        <ele>513.9</ele>
        <time>2012-10-29T10:51:12Z</time>
      </trkpt>
      <trkpt lat="40.16879" lon="9.55392">
        <ele>514</ele>
        <time>2012-10-29T10:51:16Z</time>
      </trkpt>
      <trkpt lat="40.16884" lon="9.55391">
        <ele>514.7</ele>
        <time>2012-10-29T10:51:40Z</time>
      </trkpt>
      <trkpt lat="40.16889" lon="9.55387">
        <ele>514.1</ele>
        <time>2012-10-29T10:51:47Z</time>
      </trkpt>
      <trkpt lat="40.16897" lon="9.55383">
        <ele>514.2</ele>
        <time>2012-10-29T10:52:00Z</time>
      </trkpt>
      <trkpt lat="40.16901" lon="9.55378">
        <ele>514.1</ele>
        <time>2012-10-29T10:52:06Z</time>
      </trkpt>
      <trkpt lat="40.16906" lon="9.55379">
        <ele>513.8</ele>
        <time>2012-10-29T10:52:11Z</time>
      </trkpt>
      <trkpt lat="40.16913" lon="9.55376">
        <ele>513</ele>
        <time>2012-10-29T10:52:22Z</time>
      </trkpt>
      <trkpt lat="40.16931" lon="9.55365">
        <ele>509.9</ele>
        <time>2012-10-29T10:52:45Z</time>
      </trkpt>
      <trkpt lat="40.16935" lon="9.5536">
        <ele>507.5</ele>
        <time>2012-10-29T10:52:51Z</time>
      </trkpt>
      <trkpt lat="40.16938" lon="9.55354">
        <ele>506.8</ele>
        <time>2012-10-29T10:53:00Z</time>
      </trkpt>
      <trkpt lat="40.16937" lon="9.55342">
        <ele>505.9</ele>
        <time>2012-10-29T10:53:14Z</time>
      </trkpt>
      <trkpt lat="40.16939" lon="9.55336">
        <ele>505.9</ele>
        <time>2012-10-29T10:53:19Z</time>
      </trkpt>
      <trkpt lat="40.16938" lon="9.55328">
        <ele>507.1</ele>
        <time>2012-10-29T10:53:29Z</time>
      </trkpt>
      <trkpt lat="40.16952" lon="9.55328">
        <ele>509</ele>
        <time>2012-10-29T10:53:44Z</time>
      </trkpt>
      <trkpt lat="40.16956" lon="9.5533">
        <ele>509.7</ele>
        <time>2012-10-29T10:53:53Z</time>
      </trkpt>
      <trkpt lat="40.16966" lon="9.55328">
        <ele>510.7</ele>
        <time>2012-10-29T10:54:05Z</time>
      </trkpt>
      <trkpt lat="40.16968" lon="9.55321">
        <ele>512.4</ele>
        <time>2012-10-29T10:54:28Z</time>
      </trkpt>
      <trkpt lat="40.16982" lon="9.55305">
        <ele>516.6</ele>
        <time>2012-10-29T10:55:03Z</time>
      </trkpt>
      <trkpt lat="40.16988" lon="9.55304">
        <ele>516.8</ele>
        <time>2012-10-29T10:55:17Z</time>
      </trkpt>
      <trkpt lat="40.1699" lon="9.55301">
        <ele>516.3</ele>
        <time>2012-10-29T10:55:24Z</time>
      </trkpt>
      <trkpt lat="40.16995" lon="9.55299">
        <ele>516</ele>
        <time>2012-10-29T10:55:32Z</time>
      </trkpt>
      <trkpt lat="40.16997" lon="9.5528">
        <ele>516.2</ele>
        <time>2012-10-29T10:55:53Z</time>
      </trkpt>
      <trkpt lat="40.17004" lon="9.5527">
        <ele>521</ele>
        <time>2012-10-29T10:56:06Z</time>
      </trkpt>
      <trkpt lat="40.1701" lon="9.55269">
        <ele>522.5</ele>
        <time>2012-10-29T10:56:12Z</time>
      </trkpt>
      <trkpt lat="40.17023" lon="9.55263">
        <ele>528.6</ele>
        <time>2012-10-29T10:56:39Z</time>
      </trkpt>
      <trkpt lat="40.17028" lon="9.55262">
        <ele>529.1</ele>
        <time>2012-10-29T10:56:47Z</time>
      </trkpt>
      <trkpt lat="40.17032" lon="9.5526">
        <ele>528.9</ele>
        <time>2012-10-29T10:56:52Z</time>
      </trkpt>
      <trkpt lat="40.17036" lon="9.55256">
        <ele>530</ele>
        <time>2012-10-29T10:57:01Z</time>
      </trkpt>
      <trkpt lat="40.17046" lon="9.55251">
        <ele>529.6</ele>
        <time>2012-10-29T10:57:15Z</time>
      </trkpt>
      <trkpt lat="40.17061" lon="9.55236">
        <ele>528.4</ele>
        <time>2012-10-29T10:57:46Z</time>
      </trkpt>
      <trkpt lat="40.1707" lon="9.55232">
        <ele>527.2</ele>
        <time>2012-10-29T10:57:57Z</time>
      </trkpt>
      <trkpt lat="40.17074" lon="9.55228">
        <ele>526.3</ele>
        <time>2012-10-29T10:58:10Z</time>
      </trkpt>
      <trkpt lat="40.1708" lon="9.55225">
        <ele>525.5</ele>
        <time>2012-10-29T10:58:18Z</time>
      </trkpt>
      <trkpt lat="40.17084" lon="9.55222">
        <ele>524.5</ele>
        <time>2012-10-29T10:58:24Z</time>
      </trkpt>
      <trkpt lat="40.17088" lon="9.55223">
        <ele>522.6</ele>
        <time>2012-10-29T10:58:38Z</time>
      </trkpt>
      <trkpt lat="40.17092" lon="9.55219">
        <ele>521.2</ele>
        <time>2012-10-29T10:58:48Z</time>
      </trkpt>
      <trkpt lat="40.17092" lon="9.55213">
        <ele>521.2</ele>
        <time>2012-10-29T10:58:59Z</time>
      </trkpt>
      <trkpt lat="40.17103" lon="9.55203">
        <ele>514.6</ele>
        <time>2012-10-29T10:59:25Z</time>
      </trkpt>
      <trkpt lat="40.17108" lon="9.55201">
        <ele>513</ele>
        <time>2012-10-29T10:59:35Z</time>
      </trkpt>
      <trkpt lat="40.1711" lon="9.55194">
        <ele>513.8</ele>
        <time>2012-10-29T10:59:42Z</time>
      </trkpt>
      <trkpt lat="40.17114" lon="9.55195">
        <ele>514.1</ele>
        <time>2012-10-29T10:59:48Z</time>
      </trkpt>
      <trkpt lat="40.17115" lon="9.55206">
        <ele>513.7</ele>
        <time>2012-10-29T10:59:57Z</time>
      </trkpt>
      <trkpt lat="40.17117" lon="9.55211">
        <ele>509.1</ele>
        <time>2012-10-29T11:00:32Z</time>
      </trkpt>
      <trkpt lat="40.1712" lon="9.55214">
        <ele>508.5</ele>
        <time>2012-10-29T11:00:35Z</time>
      </trkpt>
      <trkpt lat="40.17125" lon="9.55217">
        <ele>507.3</ele>
        <time>2012-10-29T11:00:41Z</time>
      </trkpt>
      <trkpt lat="40.17133" lon="9.55208">
        <ele>507.3</ele>
        <time>2012-10-29T11:00:54Z</time>
      </trkpt>
      <trkpt lat="40.17137" lon="9.55217">
        <ele>504.2</ele>
        <time>2012-10-29T11:01:17Z</time>
      </trkpt>
      <trkpt lat="40.17142" lon="9.55212">
        <ele>502.8</ele>
        <time>2012-10-29T11:01:23Z</time>
      </trkpt>
      <trkpt lat="40.17146" lon="9.55215">
        <ele>501.9</ele>
        <time>2012-10-29T11:01:29Z</time>
      </trkpt>
      <trkpt lat="40.17149" lon="9.55221">
        <ele>499.6</ele>
        <time>2012-10-29T11:01:59Z</time>
      </trkpt>
      <trkpt lat="40.17148" lon="9.5523">
        <ele>499.2</ele>
        <time>2012-10-29T11:02:06Z</time>
      </trkpt>
      <trkpt lat="40.17152" lon="9.5523">
        <ele>498.4</ele>
        <time>2012-10-29T11:02:14Z</time>
      </trkpt>
      <trkpt lat="40.17162" lon="9.55225">
        <ele>497.6</ele>
        <time>2012-10-29T11:02:24Z</time>
      </trkpt>
      <trkpt lat="40.17165" lon="9.55229">
        <ele>495.4</ele>
        <time>2012-10-29T11:02:37Z</time>
      </trkpt>
      <trkpt lat="40.17169" lon="9.55234">
        <ele>489.2</ele>
        <time>2012-10-29T11:02:54Z</time>
      </trkpt>
      <trkpt lat="40.17173" lon="9.55236">
        <ele>488.7</ele>
        <time>2012-10-29T11:02:57Z</time>
      </trkpt>
      <trkpt lat="40.17182" lon="9.55228">
        <ele>486.1</ele>
        <time>2012-10-29T11:03:04Z</time>
      </trkpt>
      <trkpt lat="40.17184" lon="9.5523">
        <ele>477.6</ele>
        <time>2012-10-29T11:04:25Z</time>
      </trkpt>
      <trkpt lat="40.17181" lon="9.55234">
        <ele>465.4</ele>
        <time>2012-10-29T11:08:12Z</time>
      </trkpt>
      <trkpt lat="40.1718" lon="9.55241">
        <ele>465.1</ele>
        <time>2012-10-29T11:08:16Z</time>
      </trkpt>
      <trkpt lat="40.17186" lon="9.55251">
        <ele>462</ele>
        <time>2012-10-29T11:08:36Z</time>
      </trkpt>
      <trkpt lat="40.17185" lon="9.55264">
        <ele>438.2</ele>
        <time>2012-10-29T11:08:54Z</time>
      </trkpt>
      <trkpt lat="40.17171" lon="9.5528">
        <ele>442.9</ele>
        <time>2012-10-29T11:10:09Z</time>
      </trkpt>
      <trkpt lat="40.17165" lon="9.5528">
        <ele>440.9</ele>
        <time>2012-10-29T11:10:18Z</time>
      </trkpt>
      <trkpt lat="40.17158" lon="9.55286">
        <ele>441.3</ele>
        <time>2012-10-29T11:10:25Z</time>
      </trkpt>
      <trkpt lat="40.17156" lon="9.553">
        <ele>438.3</ele>
        <time>2012-10-29T11:10:33Z</time>
      </trkpt>
      <trkpt lat="40.17153" lon="9.55306">
        <ele>438.1</ele>
        <time>2012-10-29T11:10:42Z</time>
      </trkpt>
      <trkpt lat="40.17154" lon="9.55311">
        <ele>433.7</ele>
        <time>2012-10-29T11:10:49Z</time>
      </trkpt>
      <trkpt lat="40.17161" lon="9.55321">
        <ele>432.1</ele>
        <time>2012-10-29T11:11:08Z</time>
      </trkpt>
      <trkpt lat="40.17159" lon="9.55324">
        <ele>431.1</ele>
        <time>2012-10-29T11:11:14Z</time>
      </trkpt>
      <trkpt lat="40.17158" lon="9.5533">
        <ele>428.5</ele>
        <time>2012-10-29T11:11:34Z</time>
      </trkpt>
      <trkpt lat="40.17156" lon="9.55334">
        <ele>424.7</ele>
        <time>2012-10-29T11:12:06Z</time>
      </trkpt>
      <trkpt lat="40.17152" lon="9.55338">
        <ele>423.9</ele>
        <time>2012-10-29T11:12:21Z</time>
      </trkpt>
      <trkpt lat="40.17148" lon="9.5535">
        <ele>422.8</ele>
        <time>2012-10-29T11:12:38Z</time>
      </trkpt>
      <trkpt lat="40.1715" lon="9.55359">
        <ele>421.6</ele>
        <time>2012-10-29T11:12:44Z</time>
      </trkpt>
      <trkpt lat="40.17147" lon="9.55387">
        <ele>437.4</ele>
        <time>2012-10-29T11:12:54Z</time>
      </trkpt>
      <trkpt lat="40.1715" lon="9.55397">
        <ele>420.7</ele>
        <time>2012-10-29T11:13:11Z</time>
      </trkpt>
      <trkpt lat="40.1715" lon="9.55402">
        <ele>413.5</ele>
        <time>2012-10-29T11:14:07Z</time>
      </trkpt>
      <trkpt lat="40.1714" lon="9.55411">
        <ele>394.9</ele>
        <time>2012-10-29T11:18:40Z</time>
      </trkpt>
      <trkpt lat="40.17136" lon="9.55412">
        <ele>399.3</ele>
        <time>2012-10-29T11:20:09Z</time>
      </trkpt>
      <trkpt lat="40.17136" lon="9.55416">
        <ele>403.4</ele>
        <time>2012-10-29T11:21:48Z</time>
      </trkpt>
      <trkpt lat="40.17139" lon="9.5542">
        <ele>403.8</ele>
        <time>2012-10-29T11:22:18Z</time>
      </trkpt>
      <trkpt lat="40.17137" lon="9.55426">
        <ele>397.1</ele>
        <time>2012-10-29T11:24:28Z</time>
      </trkpt>
      <trkpt lat="40.17132" lon="9.55428">
        <ele>396.2</ele>
        <time>2012-10-29T11:24:36Z</time>
      </trkpt>
      <trkpt lat="40.17127" lon="9.55437">
        <ele>397.9</ele>
        <time>2012-10-29T11:24:46Z</time>
      </trkpt>
      <trkpt lat="40.1713" lon="9.55443">
        <ele>397.7</ele>
        <time>2012-10-29T11:24:52Z</time>
      </trkpt>
      <trkpt lat="40.17128" lon="9.55448">
        <ele>398.7</ele>
        <time>2012-10-29T11:24:57Z</time>
      </trkpt>
      <trkpt lat="40.1713" lon="9.55452">
        <ele>398</ele>
        <time>2012-10-29T11:25:12Z</time>
      </trkpt>
      <trkpt lat="40.1713" lon="9.55457">
        <ele>398.4</ele>
        <time>2012-10-29T11:25:15Z</time>
      </trkpt>
      <trkpt lat="40.17127" lon="9.55464">
        <ele>397.4</ele>
        <time>2012-10-29T11:25:20Z</time>
      </trkpt>
      <trkpt lat="40.17123" lon="9.55467">
        <ele>397.1</ele>
        <time>2012-10-29T11:25:24Z</time>
      </trkpt>
      <trkpt lat="40.17114" lon="9.55469">
        <ele>394.2</ele>
        <time>2012-10-29T11:25:41Z</time>
      </trkpt>
      <trkpt lat="40.17113" lon="9.55475">
        <ele>394</ele>
        <time>2012-10-29T11:25:45Z</time>
      </trkpt>
      <trkpt lat="40.17115" lon="9.55488">
        <ele>392.1</ele>
        <time>2012-10-29T11:25:53Z</time>
      </trkpt>
      <trkpt lat="40.17111" lon="9.55495">
        <ele>391</ele>
        <time>2012-10-29T11:25:58Z</time>
      </trkpt>
      <trkpt lat="40.17106" lon="9.55497">
        <ele>390.5</ele>
        <time>2012-10-29T11:26:06Z</time>
      </trkpt>
      <trkpt lat="40.17106" lon="9.55501">
        <ele>387.3</ele>
        <time>2012-10-29T11:26:15Z</time>
      </trkpt>
      <trkpt lat="40.17113" lon="9.55521">
        <ele>386.8</ele>
        <time>2012-10-29T11:26:30Z</time>
      </trkpt>
      <trkpt lat="40.17112" lon="9.55537">
        <ele>385.8</ele>
        <time>2012-10-29T11:26:59Z</time>
      </trkpt>
      <trkpt lat="40.1711" lon="9.55553">
        <ele>385.2</ele>
        <time>2012-10-29T11:27:08Z</time>
      </trkpt>
      <trkpt lat="40.1711" lon="9.55566">
        <ele>383.8</ele>
        <time>2012-10-29T11:27:14Z</time>
      </trkpt>
      <trkpt lat="40.17096" lon="9.55604">
        <ele>383.3</ele>
        <time>2012-10-29T11:27:32Z</time>
      </trkpt>
      <trkpt lat="40.17091" lon="9.55637">
        <ele>380.9</ele>
        <time>2012-10-29T11:27:43Z</time>
      </trkpt>
      <trkpt lat="40.17087" lon="9.55644">
        <ele>380.2</ele>
        <time>2012-10-29T11:27:49Z</time>
      </trkpt>
      <trkpt lat="40.17079" lon="9.55639">
        <ele>376.8</ele>
        <time>2012-10-29T11:28:04Z</time>
      </trkpt>
      <trkpt lat="40.17074" lon="9.5564">
        <ele>376</ele>
        <time>2012-10-29T11:28:08Z</time>
      </trkpt>
      <trkpt lat="40.17071" lon="9.55647">
        <ele>374.8</ele>
        <time>2012-10-29T11:28:13Z</time>
      </trkpt>
      <trkpt lat="40.17065" lon="9.5565">
        <ele>372.2</ele>
        <time>2012-10-29T11:28:18Z</time>
      </trkpt>
      <trkpt lat="40.17063" lon="9.55654">
        <ele>370.3</ele>
        <time>2012-10-29T11:28:24Z</time>
      </trkpt>
      <trkpt lat="40.17065" lon="9.55661">
        <ele>370</ele>
        <time>2012-10-29T11:28:27Z</time>
      </trkpt>
      <trkpt lat="40.17065" lon="9.55675">
        <ele>367.8</ele>
        <time>2012-10-29T11:28:37Z</time>
      </trkpt>
      <trkpt lat="40.17062" lon="9.55685">
        <ele>367</ele>
        <time>2012-10-29T11:28:50Z</time>
      </trkpt>
      <trkpt lat="40.17055" lon="9.55695">
        <ele>360.5</ele>
        <time>2012-10-29T11:29:01Z</time>
      </trkpt>
      <trkpt lat="40.17051" lon="9.55698">
        <ele>355.6</ele>
        <time>2012-10-29T11:29:24Z</time>
      </trkpt>
      <trkpt lat="40.17046" lon="9.55691">
        <ele>354.4</ele>
        <time>2012-10-29T11:29:29Z</time>
      </trkpt>
      <trkpt lat="40.17042" lon="9.55691">
        <ele>352.7</ele>
        <time>2012-10-29T11:29:34Z</time>
      </trkpt>
      <trkpt lat="40.17037" lon="9.55694">
        <ele>351</ele>
        <time>2012-10-29T11:29:42Z</time>
      </trkpt>
      <trkpt lat="40.17029" lon="9.55694">
        <ele>347.3</ele>
        <time>2012-10-29T11:29:54Z</time>
      </trkpt>
      <trkpt lat="40.17023" lon="9.55696">
        <ele>344.6</ele>
        <time>2012-10-29T11:29:59Z</time>
      </trkpt>
      <trkpt lat="40.1702" lon="9.557">
        <ele>343.3</ele>
        <time>2012-10-29T11:30:04Z</time>
      </trkpt>
      <trkpt lat="40.17019" lon="9.55706">
        <ele>340.3</ele>
        <time>2012-10-29T11:30:16Z</time>
      </trkpt>
      <trkpt lat="40.17015" lon="9.55711">
        <ele>337.2</ele>
        <time>2012-10-29T11:30:24Z</time>
      </trkpt>
      <trkpt lat="40.17015" lon="9.55718">
        <ele>334.6</ele>
        <time>2012-10-29T11:30:40Z</time>
      </trkpt>
      <trkpt lat="40.17012" lon="9.55723">
        <ele>333.2</ele>
        <time>2012-10-29T11:30:45Z</time>
      </trkpt>
      <trkpt lat="40.17007" lon="9.55725">
        <ele>330.1</ele>
        <time>2012-10-29T11:30:53Z</time>
      </trkpt>
      <trkpt lat="40.16998" lon="9.55738">
        <ele>324.8</ele>
        <time>2012-10-29T11:31:28Z</time>
      </trkpt>
      <trkpt lat="40.16992" lon="9.55751">
        <ele>323.4</ele>
        <time>2012-10-29T11:31:43Z</time>
      </trkpt>
      <trkpt lat="40.16984" lon="9.55755">
        <ele>321.2</ele>
        <time>2012-10-29T11:31:57Z</time>
      </trkpt>
      <trkpt lat="40.16981" lon="9.55761">
        <ele>320.1</ele>
        <time>2012-10-29T11:32:04Z</time>
      </trkpt>
      <trkpt lat="40.1698" lon="9.55766">
        <ele>319.7</ele>
        <time>2012-10-29T11:32:14Z</time>
      </trkpt>
      <trkpt lat="40.16985" lon="9.5578">
        <ele>318.8</ele>
        <time>2012-10-29T11:32:24Z</time>
      </trkpt>
      <trkpt lat="40.16984" lon="9.55785">
        <ele>317.6</ele>
        <time>2012-10-29T11:32:29Z</time>
      </trkpt>
      <trkpt lat="40.16987" lon="9.55791">
        <ele>316.4</ele>
        <time>2012-10-29T11:32:35Z</time>
      </trkpt>
      <trkpt lat="40.16995" lon="9.55815">
        <ele>310.3</ele>
        <time>2012-10-29T11:32:54Z</time>
      </trkpt>
      <trkpt lat="40.16993" lon="9.55821">
        <ele>308.3</ele>
        <time>2012-10-29T11:33:01Z</time>
      </trkpt>
      <trkpt lat="40.16996" lon="9.55836">
        <ele>307.8</ele>
        <time>2012-10-29T11:33:07Z</time>
      </trkpt>
      <trkpt lat="40.16997" lon="9.55851">
        <ele>307.1</ele>
        <time>2012-10-29T11:33:13Z</time>
      </trkpt>
      <trkpt lat="40.16994" lon="9.55871">
        <ele>305.9</ele>
        <time>2012-10-29T11:33:19Z</time>
      </trkpt>
      <trkpt lat="40.16994" lon="9.55879">
        <ele>305.4</ele>
        <time>2012-10-29T11:33:21Z</time>
      </trkpt>
      <trkpt lat="40.16997" lon="9.55887">
        <ele>304.7</ele>
        <time>2012-10-29T11:33:24Z</time>
      </trkpt>
      <trkpt lat="40.17017" lon="9.55913">
        <ele>302.9</ele>
        <time>2012-10-29T11:33:33Z</time>
      </trkpt>
      <trkpt lat="40.1703" lon="9.55925">
        <ele>302.2</ele>
        <time>2012-10-29T11:33:36Z</time>
      </trkpt>
      <trkpt lat="40.17051" lon="9.55951">
        <ele>301.3</ele>
        <time>2012-10-29T11:33:43Z</time>
      </trkpt>
      <trkpt lat="40.17099" lon="9.56">
        <ele>269.8</ele>
        <time>2012-10-29T11:33:58Z</time>
      </trkpt>
      <trkpt lat="40.17109" lon="9.56006">
        <ele>256.4</ele>
        <time>2012-10-29T11:34:01Z</time>
      </trkpt>
      <trkpt lat="40.17116" lon="9.56012">
        <ele>254.6</ele>
        <time>2012-10-29T11:34:03Z</time>
      </trkpt>
      <trkpt lat="40.17151" lon="9.56057">
        <ele>255</ele>
        <time>2012-10-29T11:34:15Z</time>
      </trkpt>
      <trkpt lat="40.17165" lon="9.5607">
        <ele>257.6</ele>
        <time>2012-10-29T11:34:20Z</time>
      </trkpt>
      <trkpt lat="40.17177" lon="9.56088">
        <ele>270.9</ele>
        <time>2012-10-29T11:34:26Z</time>
      </trkpt>
      <trkpt lat="40.17187" lon="9.56099">
        <ele>266.4</ele>
        <time>2012-10-29T11:34:30Z</time>
      </trkpt>
      <trkpt lat="40.17192" lon="9.56102">
        <ele>266.4</ele>
        <time>2012-10-29T11:34:32Z</time>
      </trkpt>
      <trkpt lat="40.17199" lon="9.56103">
        <ele>260.5</ele>
        <time>2012-10-29T11:34:36Z</time>
      </trkpt>
      <trkpt lat="40.17209" lon="9.56108">
        <ele>260.1</ele>
        <time>2012-10-29T11:34:44Z</time>
      </trkpt>
      <trkpt lat="40.17222" lon="9.56111">
        <ele>266.8</ele>
        <time>2012-10-29T11:34:46Z</time>
      </trkpt>
      <trkpt lat="40.17226" lon="9.56107">
        <ele>251.8</ele>
        <time>2012-10-29T11:34:50Z</time>
      </trkpt>
      <trkpt lat="40.17237" lon="9.56106">
        <ele>250.3</ele>
        <time>2012-10-29T11:35:42Z</time>
      </trkpt>
      <trkpt lat="40.17273" lon="9.56121">
        <ele>249.5</ele>
        <time>2012-10-29T11:36:05Z</time>
      </trkpt>
      <trkpt lat="40.17297" lon="9.56126">
        <ele>249.3</ele>
        <time>2012-10-29T11:36:10Z</time>
      </trkpt>
      <trkpt lat="40.17338" lon="9.56142">
        <ele>248.1</ele>
        <time>2012-10-29T11:36:18Z</time>
      </trkpt>
      <trkpt lat="40.17365" lon="9.5614">
        <ele>247</ele>
        <time>2012-10-29T11:36:22Z</time>
      </trkpt>
      <trkpt lat="40.17386" lon="9.56133">
        <ele>247.3</ele>
        <time>2012-10-29T11:36:26Z</time>
      </trkpt>
      <trkpt lat="40.17396" lon="9.56131">
        <ele>247.7</ele>
        <time>2012-10-29T11:36:28Z</time>
      </trkpt>
      <trkpt lat="40.17401" lon="9.56131">
        <ele>248.2</ele>
        <time>2012-10-29T11:36:29Z</time>
      </trkpt>
      <trkpt lat="40.17442" lon="9.56137">
        <ele>247.6</ele>
        <time>2012-10-29T11:36:35Z</time>
      </trkpt>
      <trkpt lat="40.17454" lon="9.56136">
        <ele>247.2</ele>
        <time>2012-10-29T11:36:37Z</time>
      </trkpt>
      <trkpt lat="40.17496" lon="9.56142">
        <ele>246.5</ele>
        <time>2012-10-29T11:36:44Z</time>
      </trkpt>
      <trkpt lat="40.17532" lon="9.56151">
        <ele>246.6</ele>
        <time>2012-10-29T11:36:50Z</time>
      </trkpt>
      <trkpt lat="40.17541" lon="9.56157">
        <ele>246.8</ele>
        <time>2012-10-29T11:36:52Z</time>
      </trkpt>
      <trkpt lat="40.17563" lon="9.56174">
        <ele>246.9</ele>
        <time>2012-10-29T11:36:57Z</time>
      </trkpt>
      <trkpt lat="40.17611" lon="9.56225">
        <ele>246.4</ele>
        <time>2012-10-29T11:37:08Z</time>
      </trkpt>
      <trkpt lat="40.1763" lon="9.56235">
        <ele>245.9</ele>
        <time>2012-10-29T11:37:12Z</time>
      </trkpt>
      <trkpt lat="40.1764" lon="9.56243">
        <ele>245.3</ele>
        <time>2012-10-29T11:37:14Z</time>
      </trkpt>
      <trkpt lat="40.17653" lon="9.56251">
        <ele>243.8</ele>
        <time>2012-10-29T11:37:17Z</time>
      </trkpt>
      <trkpt lat="40.17661" lon="9.56259">
        <ele>242.7</ele>
        <time>2012-10-29T11:37:21Z</time>
      </trkpt>
      <trkpt lat="40.17672" lon="9.56266">
        <ele>241.1</ele>
        <time>2012-10-29T11:37:33Z</time>
      </trkpt>
      <trkpt lat="40.17678" lon="9.56273">
        <ele>236.6</ele>
        <time>2012-10-29T11:37:46Z</time>
      </trkpt>
      <trkpt lat="40.17692" lon="9.56277">
        <ele>236.7</ele>
        <time>2012-10-29T11:38:02Z</time>
      </trkpt>
      <trkpt lat="40.17697" lon="9.5628">
        <ele>234.8</ele>
        <time>2012-10-29T11:38:07Z</time>
      </trkpt>
      <trkpt lat="40.17702" lon="9.56277">
        <ele>233.6</ele>
        <time>2012-10-29T11:38:13Z</time>
      </trkpt>
      <trkpt lat="40.17706" lon="9.56279">
        <ele>232.9</ele>
        <time>2012-10-29T11:38:18Z</time>
      </trkpt>
      <trkpt lat="40.17729" lon="9.56319">
        <ele>231.5</ele>
        <time>2012-10-29T11:38:47Z</time>
      </trkpt>
      <trkpt lat="40.17734" lon="9.56324">
        <ele>231.8</ele>
        <time>2012-10-29T11:38:50Z</time>
      </trkpt>
      <trkpt lat="40.17741" lon="9.56328">
        <ele>231.9</ele>
        <time>2012-10-29T11:38:53Z</time>
      </trkpt>
      <trkpt lat="40.17751" lon="9.56337">
        <ele>231.5</ele>
        <time>2012-10-29T11:38:57Z</time>
      </trkpt>
      <trkpt lat="40.17766" lon="9.56335">
        <ele>228</ele>
        <time>2012-10-29T11:39:04Z</time>
      </trkpt>
      <trkpt lat="40.17775" lon="9.56337">
        <ele>226.9</ele>
        <time>2012-10-29T11:39:09Z</time>
      </trkpt>
      <trkpt lat="40.17783" lon="9.56346">
        <ele>225.3</ele>
        <time>2012-10-29T11:39:21Z</time>
      </trkpt>
      <trkpt lat="40.17785" lon="9.56354">
        <ele>224.7</ele>
        <time>2012-10-29T11:39:28Z</time>
      </trkpt>
      <trkpt lat="40.17789" lon="9.56357">
        <ele>224.2</ele>
        <time>2012-10-29T11:39:31Z</time>
      </trkpt>
      <trkpt lat="40.17794" lon="9.56365">
        <ele>224.5</ele>
        <time>2012-10-29T11:39:34Z</time>
      </trkpt>
      <trkpt lat="40.17804" lon="9.56373">
        <ele>224.2</ele>
        <time>2012-10-29T11:39:37Z</time>
      </trkpt>
      <trkpt lat="40.17816" lon="9.56391">
        <ele>224.8</ele>
        <time>2012-10-29T11:39:42Z</time>
      </trkpt>
      <trkpt lat="40.17834" lon="9.564">
        <ele>225.6</ele>
        <time>2012-10-29T11:39:47Z</time>
      </trkpt>
      <trkpt lat="40.1785" lon="9.56416">
        <ele>225.2</ele>
        <time>2012-10-29T11:39:51Z</time>
      </trkpt>
      <trkpt lat="40.17879" lon="9.56434">
        <ele>225.4</ele>
        <time>2012-10-29T11:40:01Z</time>
      </trkpt>
      <trkpt lat="40.17896" lon="9.56452">
        <ele>224.6</ele>
        <time>2012-10-29T11:40:06Z</time>
      </trkpt>
      <trkpt lat="40.1791" lon="9.56479">
        <ele>225.5</ele>
        <time>2012-10-29T11:40:11Z</time>
      </trkpt>
      <trkpt lat="40.1793" lon="9.56501">
        <ele>225.3</ele>
        <time>2012-10-29T11:40:18Z</time>
      </trkpt>
      <trkpt lat="40.17936" lon="9.56514">
        <ele>226.2</ele>
        <time>2012-10-29T11:40:22Z</time>
      </trkpt>
      <trkpt lat="40.1794" lon="9.56517">
        <ele>223</ele>
        <time>2012-10-29T11:41:44Z</time>
      </trkpt>
      <trkpt lat="40.1794" lon="9.56524">
        <ele>222.9</ele>
        <time>2012-10-29T11:41:49Z</time>
      </trkpt>
      <trkpt lat="40.17947" lon="9.56532">
        <ele>217.6</ele>
        <time>2012-10-29T11:42:42Z</time>
      </trkpt>
      <trkpt lat="40.17954" lon="9.56548">
        <ele>217.6</ele>
        <time>2012-10-29T11:42:48Z</time>
      </trkpt>
      <trkpt lat="40.17956" lon="9.56558">
        <ele>217.5</ele>
        <time>2012-10-29T11:42:52Z</time>
      </trkpt>
      <trkpt lat="40.17963" lon="9.56568">
        <ele>218</ele>
        <time>2012-10-29T11:43:00Z</time>
      </trkpt>
      <trkpt lat="40.1797" lon="9.56581">
        <ele>219.1</ele>
        <time>2012-10-29T11:43:06Z</time>
      </trkpt>
      <trkpt lat="40.17975" lon="9.56601">
        <ele>215.6</ele>
        <time>2012-10-29T11:43:20Z</time>
      </trkpt>
      <trkpt lat="40.17985" lon="9.56617">
        <ele>216</ele>
        <time>2012-10-29T11:43:29Z</time>
      </trkpt>
      <trkpt lat="40.17988" lon="9.56628">
        <ele>216.2</ele>
        <time>2012-10-29T11:43:33Z</time>
      </trkpt>
      <trkpt lat="40.17994" lon="9.56642">
        <ele>216.3</ele>
        <time>2012-10-29T11:43:40Z</time>
      </trkpt>
      <trkpt lat="40.18002" lon="9.56656">
        <ele>216.2</ele>
        <time>2012-10-29T11:43:48Z</time>
      </trkpt>
      <trkpt lat="40.18005" lon="9.56664">
        <ele>215.1</ele>
        <time>2012-10-29T11:43:52Z</time>
      </trkpt>
      <trkpt lat="40.18016" lon="9.56685">
        <ele>215.6</ele>
        <time>2012-10-29T11:44:04Z</time>
      </trkpt>
      <trkpt lat="40.18023" lon="9.56712">
        <ele>220.4</ele>
        <time>2012-10-29T11:44:16Z</time>
      </trkpt>
      <trkpt lat="40.18028" lon="9.56723">
        <ele>222.1</ele>
        <time>2012-10-29T11:44:25Z</time>
      </trkpt>
      <trkpt lat="40.18032" lon="9.56735">
        <ele>223.5</ele>
        <time>2012-10-29T11:44:35Z</time>
      </trkpt>
      <trkpt lat="40.18041" lon="9.56748">
        <ele>223.3</ele>
        <time>2012-10-29T11:44:44Z</time>
      </trkpt>
      <trkpt lat="40.18048" lon="9.56764">
        <ele>223.7</ele>
        <time>2012-10-29T11:44:58Z</time>
      </trkpt>
      <trkpt lat="40.18065" lon="9.56791">
        <ele>221</ele>
        <time>2012-10-29T11:45:20Z</time>
      </trkpt>
      <trkpt lat="40.18075" lon="9.56812">
        <ele>219.7</ele>
        <time>2012-10-29T11:45:36Z</time>
      </trkpt>
      <trkpt lat="40.18082" lon="9.5682">
        <ele>222.7</ele>
        <time>2012-10-29T11:45:48Z</time>
      </trkpt>
      <trkpt lat="40.18092" lon="9.5682">
        <ele>223.2</ele>
        <time>2012-10-29T11:45:58Z</time>
      </trkpt>
      <trkpt lat="40.18115" lon="9.56829">
        <ele>223.2</ele>
        <time>2012-10-29T11:46:15Z</time>
      </trkpt>
      <trkpt lat="40.18123" lon="9.56821">
        <ele>222</ele>
        <time>2012-10-29T11:46:28Z</time>
      </trkpt>
      <trkpt lat="40.18128" lon="9.56819">
        <ele>222.6</ele>
        <time>2012-10-29T11:46:34Z</time>
      </trkpt>
      <trkpt lat="40.18157" lon="9.5682">
        <ele>222.8</ele>
        <time>2012-10-29T11:47:05Z</time>
      </trkpt>
      <trkpt lat="40.18167" lon="9.56829">
        <ele>227.8</ele>
        <time>2012-10-29T11:47:27Z</time>
      </trkpt>
      <trkpt lat="40.18168" lon="9.5684">
        <ele>226.2</ele>
        <time>2012-10-29T11:47:46Z</time>
      </trkpt>
      <trkpt lat="40.18172" lon="9.56838">
        <ele>228.5</ele>
        <time>2012-10-29T11:48:31Z</time>
      </trkpt>
      <trkpt lat="40.18176" lon="9.56842">
        <ele>231</ele>
        <time>2012-10-29T11:48:35Z</time>
      </trkpt>
      <trkpt lat="40.18176" lon="9.56853">
        <ele>231.9</ele>
        <time>2012-10-29T11:48:44Z</time>
      </trkpt>
      <trkpt lat="40.18185" lon="9.56853">
        <ele>232.4</ele>
        <time>2012-10-29T11:48:50Z</time>
      </trkpt>
      <trkpt lat="40.18186" lon="9.56858">
        <ele>226.4</ele>
        <time>2012-10-29T11:48:52Z</time>
      </trkpt>
      <trkpt lat="40.18188" lon="9.5686">
        <ele>224.2</ele>
        <time>2012-10-29T11:48:53Z</time>
      </trkpt>
      <trkpt lat="40.182" lon="9.56849">
        <ele>218.9</ele>
        <time>2012-10-29T11:49:24Z</time>
      </trkpt>
      <trkpt lat="40.18202" lon="9.56854">
        <ele>217.9</ele>
        <time>2012-10-29T11:49:33Z</time>
      </trkpt>
      <trkpt lat="40.182" lon="9.56861">
        <ele>219.6</ele>
        <time>2012-10-29T11:49:42Z</time>
      </trkpt>
      <trkpt lat="40.18205" lon="9.56864">
        <ele>218.9</ele>
        <time>2012-10-29T11:49:52Z</time>
      </trkpt>
      <trkpt lat="40.18209" lon="9.56864">
        <ele>219.4</ele>
        <time>2012-10-29T11:49:58Z</time>
      </trkpt>
      <trkpt lat="40.18211" lon="9.5685">
        <ele>222.4</ele>
        <time>2012-10-29T11:53:32Z</time>
      </trkpt>
      <trkpt lat="40.18213" lon="9.56845">
        <ele>224</ele>
        <time>2012-10-29T11:53:56Z</time>
      </trkpt>
      <trkpt lat="40.18214" lon="9.56846">
        <ele>224.2</ele>
        <time>2012-10-29T11:53:57Z</time>
      </trkpt>
      <trkpt lat="40.18223" lon="9.56854">
        <ele>224.7</ele>
        <time>2012-10-29T11:54:04Z</time>
      </trkpt>
      <trkpt lat="40.18227" lon="9.56866">
        <ele>222.8</ele>
        <time>2012-10-29T11:54:12Z</time>
      </trkpt>
      <trkpt lat="40.18231" lon="9.56874">
        <ele>222.8</ele>
        <time>2012-10-29T11:54:16Z</time>
      </trkpt>
      <trkpt lat="40.18242" lon="9.56888">
        <ele>219.7</ele>
        <time>2012-10-29T11:54:25Z</time>
      </trkpt>
      <trkpt lat="40.18248" lon="9.56887">
        <ele>218.6</ele>
        <time>2012-10-29T11:54:31Z</time>
      </trkpt>
      <trkpt lat="40.18258" lon="9.56891">
        <ele>218.2</ele>
        <time>2012-10-29T11:54:40Z</time>
      </trkpt>
      <trkpt lat="40.18261" lon="9.56895">
        <ele>217.6</ele>
        <time>2012-10-29T11:54:44Z</time>
      </trkpt>
      <trkpt lat="40.18278" lon="9.56922">
        <ele>211.5</ele>
        <time>2012-10-29T11:55:02Z</time>
      </trkpt>
      <trkpt lat="40.18282" lon="9.56933">
        <ele>210.6</ele>
        <time>2012-10-29T11:55:08Z</time>
      </trkpt>
      <trkpt lat="40.18286" lon="9.56931">
        <ele>210.9</ele>
        <time>2012-10-29T11:55:15Z</time>
      </trkpt>
      <trkpt lat="40.1829" lon="9.56927">
        <ele>212.9</ele>
        <time>2012-10-29T11:55:28Z</time>
      </trkpt>
      <trkpt lat="40.183" lon="9.5693">
        <ele>210.8</ele>
        <time>2012-10-29T11:55:51Z</time>
      </trkpt>
      <trkpt lat="40.18305" lon="9.56942">
        <ele>209.1</ele>
        <time>2012-10-29T11:56:07Z</time>
      </trkpt>
      <trkpt lat="40.18317" lon="9.56951">
        <ele>207</ele>
        <time>2012-10-29T11:56:26Z</time>
      </trkpt>
      <trkpt lat="40.1832" lon="9.56956">
        <ele>203.9</ele>
        <time>2012-10-29T11:56:45Z</time>
      </trkpt>
      <trkpt lat="40.18328" lon="9.56959">
        <ele>202.4</ele>
        <time>2012-10-29T11:57:02Z</time>
      </trkpt>
      <trkpt lat="40.18332" lon="9.56965">
        <ele>201.7</ele>
        <time>2012-10-29T11:57:10Z</time>
      </trkpt>
      <trkpt lat="40.18335" lon="9.56966">
        <ele>202.1</ele>
        <time>2012-10-29T11:57:19Z</time>
      </trkpt>
      <trkpt lat="40.18341" lon="9.56964">
        <ele>201.7</ele>
        <time>2012-10-29T11:57:24Z</time>
      </trkpt>
      <trkpt lat="40.18343" lon="9.56957">
        <ele>201.5</ele>
        <time>2012-10-29T11:57:31Z</time>
      </trkpt>
      <trkpt lat="40.18347" lon="9.56954">
        <ele>201.3</ele>
        <time>2012-10-29T11:57:44Z</time>
      </trkpt>
      <trkpt lat="40.18364" lon="9.56977">
        <ele>200.5</ele>
        <time>2012-10-29T11:58:21Z</time>
      </trkpt>
      <trkpt lat="40.18368" lon="9.56976">
        <ele>200.2</ele>
        <time>2012-10-29T11:58:27Z</time>
      </trkpt>
      <trkpt lat="40.18374" lon="9.56979">
        <ele>201</ele>
        <time>2012-10-29T11:58:37Z</time>
      </trkpt>
      <trkpt lat="40.18378" lon="9.56977">
        <ele>201.6</ele>
        <time>2012-10-29T11:58:42Z</time>
      </trkpt>
      <trkpt lat="40.18383" lon="9.56987">
        <ele>199.6</ele>
        <time>2012-10-29T11:59:00Z</time>
      </trkpt>
      <trkpt lat="40.18401" lon="9.57001">
        <ele>200.1</ele>
        <time>2012-10-29T11:59:24Z</time>
      </trkpt>
      <trkpt lat="40.18421" lon="9.57021">
        <ele>200.8</ele>
        <time>2012-10-29T11:59:37Z</time>
      </trkpt>
      <trkpt lat="40.18436" lon="9.57031">
        <ele>201.6</ele>
        <time>2012-10-29T11:59:41Z</time>
      </trkpt>
      <trkpt lat="40.18446" lon="9.57043">
        <ele>202.3</ele>
        <time>2012-10-29T11:59:46Z</time>
      </trkpt>
      <trkpt lat="40.18455" lon="9.57049">
        <ele>201.8</ele>
        <time>2012-10-29T11:59:52Z</time>
      </trkpt>
      <trkpt lat="40.18465" lon="9.57053">
        <ele>201.9</ele>
        <time>2012-10-29T11:59:58Z</time>
      </trkpt>
      <trkpt lat="40.18479" lon="9.57062">
        <ele>201.9</ele>
        <time>2012-10-29T12:00:07Z</time>
      </trkpt>
      <trkpt lat="40.18492" lon="9.57084">
        <ele>200.7</ele>
        <time>2012-10-29T12:00:16Z</time>
      </trkpt>
      <trkpt lat="40.18508" lon="9.57103">
        <ele>200.6</ele>
        <time>2012-10-29T12:00:25Z</time>
      </trkpt>
      <trkpt lat="40.18517" lon="9.5711">
        <ele>199.9</ele>
        <time>2012-10-29T12:00:29Z</time>
      </trkpt>
      <trkpt lat="40.18546" lon="9.57126">
        <ele>199.5</ele>
        <time>2012-10-29T12:00:36Z</time>
      </trkpt>
      <trkpt lat="40.1856" lon="9.57136">
        <ele>198.5</ele>
        <time>2012-10-29T12:00:42Z</time>
      </trkpt>
      <trkpt lat="40.18572" lon="9.57152">
        <ele>180.4</ele>
        <time>2012-10-29T12:00:49Z</time>
      </trkpt>
      <trkpt lat="40.18577" lon="9.5715">
        <ele>182.1</ele>
        <time>2012-10-29T12:00:50Z</time>
      </trkpt>
      <trkpt lat="40.18593" lon="9.57155">
        <ele>183.4</ele>
        <time>2012-10-29T12:01:03Z</time>
      </trkpt>
      <trkpt lat="40.18606" lon="9.57165">
        <ele>188.1</ele>
        <time>2012-10-29T12:01:10Z</time>
      </trkpt>
      <trkpt lat="40.1863" lon="9.57179">
        <ele>188.1</ele>
        <time>2012-10-29T12:01:19Z</time>
      </trkpt>
      <trkpt lat="40.18636" lon="9.5718">
        <ele>189.4</ele>
        <time>2012-10-29T12:01:24Z</time>
      </trkpt>
      <trkpt lat="40.18642" lon="9.57179">
        <ele>192.8</ele>
        <time>2012-10-29T12:01:28Z</time>
      </trkpt>
      <trkpt lat="40.18665" lon="9.57183">
        <ele>195.8</ele>
        <time>2012-10-29T12:01:42Z</time>
      </trkpt>
      <trkpt lat="40.18679" lon="9.57183">
        <ele>196.4</ele>
        <time>2012-10-29T12:01:48Z</time>
      </trkpt>
      <trkpt lat="40.18692" lon="9.5718">
        <ele>194.7</ele>
        <time>2012-10-29T12:01:54Z</time>
      </trkpt>
      <trkpt lat="40.18694" lon="9.5718">
        <ele>194.3</ele>
        <time>2012-10-29T12:01:55Z</time>
      </trkpt>
      <trkpt lat="40.18698" lon="9.57185">
        <ele>192.7</ele>
        <time>2012-10-29T12:01:59Z</time>
      </trkpt>
      <trkpt lat="40.18702" lon="9.57174">
        <ele>191.7</ele>
        <time>2012-10-29T12:02:09Z</time>
      </trkpt>
      <trkpt lat="40.18706" lon="9.57173">
        <ele>190.1</ele>
        <time>2012-10-29T12:02:13Z</time>
      </trkpt>
      <trkpt lat="40.18712" lon="9.57176">
        <ele>190.6</ele>
        <time>2012-10-29T12:02:17Z</time>
      </trkpt>
      <trkpt lat="40.18724" lon="9.57173">
        <ele>188.8</ele>
        <time>2012-10-29T12:02:37Z</time>
      </trkpt>
      <trkpt lat="40.18728" lon="9.57175">
        <ele>179.4</ele>
        <time>2012-10-29T12:03:51Z</time>
      </trkpt>
      <trkpt lat="40.18735" lon="9.57168">
        <ele>176.2</ele>
        <time>2012-10-29T12:04:20Z</time>
      </trkpt>
      <trkpt lat="40.18749" lon="9.57163">
        <ele>175.1</ele>
        <time>2012-10-29T12:04:39Z</time>
      </trkpt>
      <trkpt lat="40.18755" lon="9.57162">
        <ele>174.8</ele>
        <time>2012-10-29T12:04:46Z</time>
      </trkpt>
      <trkpt lat="40.18758" lon="9.57165">
        <ele>174.3</ele>
        <time>2012-10-29T12:04:50Z</time>
      </trkpt>
      <trkpt lat="40.18766" lon="9.57172">
        <ele>174.8</ele>
        <time>2012-10-29T12:04:59Z</time>
      </trkpt>
      <trkpt lat="40.18772" lon="9.57182">
        <ele>175.2</ele>
        <time>2012-10-29T12:05:06Z</time>
      </trkpt>
      <trkpt lat="40.18777" lon="9.57187">
        <ele>174.9</ele>
        <time>2012-10-29T12:05:10Z</time>
      </trkpt>
      <trkpt lat="40.18783" lon="9.57195">
        <ele>174.5</ele>
        <time>2012-10-29T12:05:19Z</time>
      </trkpt>
      <trkpt lat="40.18792" lon="9.57204">
        <ele>174.7</ele>
        <time>2012-10-29T12:05:30Z</time>
      </trkpt>
      <trkpt lat="40.18802" lon="9.57225">
        <ele>178.1</ele>
        <time>2012-10-29T12:06:04Z</time>
      </trkpt>
      <trkpt lat="40.18848" lon="9.57268">
        <ele>180.3</ele>
        <time>2012-10-29T12:06:38Z</time>
      </trkpt>
      <trkpt lat="40.18881" lon="9.57317">
        <ele>178.3</ele>
        <time>2012-10-29T12:06:55Z</time>
      </trkpt>
      <trkpt lat="40.18891" lon="9.57329">
        <ele>178.4</ele>
        <time>2012-10-29T12:06:57Z</time>
      </trkpt>
      <trkpt lat="40.18907" lon="9.5736">
        <ele>177.6</ele>
        <time>2012-10-29T12:07:09Z</time>
      </trkpt>
      <trkpt lat="40.18911" lon="9.57375">
        <ele>178.9</ele>
        <time>2012-10-29T12:07:15Z</time>
      </trkpt>
      <trkpt lat="40.18922" lon="9.57391">
        <ele>179.5</ele>
        <time>2012-10-29T12:07:20Z</time>
      </trkpt>
      <trkpt lat="40.18927" lon="9.57406">
        <ele>179.3</ele>
        <time>2012-10-29T12:07:24Z</time>
      </trkpt>
      <trkpt lat="40.18941" lon="9.5743">
        <ele>179</ele>
        <time>2012-10-29T12:07:30Z</time>
      </trkpt>
      <trkpt lat="40.18961" lon="9.57453">
        <ele>177.4</ele>
        <time>2012-10-29T12:07:38Z</time>
      </trkpt>
      <trkpt lat="40.18966" lon="9.57451">
        <ele>175.9</ele>
        <time>2012-10-29T12:07:41Z</time>
      </trkpt>
      <trkpt lat="40.18972" lon="9.57446">
        <ele>174.5</ele>
        <time>2012-10-29T12:07:45Z</time>
      </trkpt>
      <trkpt lat="40.18978" lon="9.57449">
        <ele>174.2</ele>
        <time>2012-10-29T12:07:50Z</time>
      </trkpt>
      <trkpt lat="40.19004" lon="9.57485">
        <ele>173.5</ele>
        <time>2012-10-29T12:08:01Z</time>
      </trkpt>
      <trkpt lat="40.19015" lon="9.57504">
        <ele>172.4</ele>
        <time>2012-10-29T12:08:08Z</time>
      </trkpt>
      <trkpt lat="40.19021" lon="9.57518">
        <ele>172.2</ele>
        <time>2012-10-29T12:08:12Z</time>
      </trkpt>
      <trkpt lat="40.19024" lon="9.57533">
        <ele>171.8</ele>
        <time>2012-10-29T12:08:17Z</time>
      </trkpt>
      <trkpt lat="40.19031" lon="9.57555">
        <ele>170.7</ele>
        <time>2012-10-29T12:08:23Z</time>
      </trkpt>
      <trkpt lat="40.19033" lon="9.57567">
        <ele>170</ele>
        <time>2012-10-29T12:08:26Z</time>
      </trkpt>
      <trkpt lat="40.19053" lon="9.57625">
        <ele>162.2</ele>
        <time>2012-10-29T12:09:46Z</time>
      </trkpt>
      <trkpt lat="40.19063" lon="9.57648">
        <ele>162</ele>
        <time>2012-10-29T12:09:54Z</time>
      </trkpt>
      <trkpt lat="40.19065" lon="9.57662">
        <ele>161.8</ele>
        <time>2012-10-29T12:10:00Z</time>
      </trkpt>
      <trkpt lat="40.19064" lon="9.57674">
        <ele>162.3</ele>
        <time>2012-10-29T12:10:09Z</time>
      </trkpt>
      <trkpt lat="40.19073" lon="9.57697">
        <ele>164.6</ele>
        <time>2012-10-29T12:10:23Z</time>
      </trkpt>
      <trkpt lat="40.19087" lon="9.5771">
        <ele>165.7</ele>
        <time>2012-10-29T12:10:33Z</time>
      </trkpt>
      <trkpt lat="40.19116" lon="9.57741">
        <ele>166.6</ele>
        <time>2012-10-29T12:10:49Z</time>
      </trkpt>
      <trkpt lat="40.19139" lon="9.57748">
        <ele>166.1</ele>
        <time>2012-10-29T12:11:00Z</time>
      </trkpt>
      <trkpt lat="40.19164" lon="9.57762">
        <ele>164.9</ele>
        <time>2012-10-29T12:11:12Z</time>
      </trkpt>
      <trkpt lat="40.19175" lon="9.57764">
        <ele>164.9</ele>
        <time>2012-10-29T12:11:19Z</time>
      </trkpt>
      <trkpt lat="40.19202" lon="9.57774">
        <ele>163.9</ele>
        <time>2012-10-29T12:11:36Z</time>
      </trkpt>
      <trkpt lat="40.19214" lon="9.57763">
        <ele>163.1</ele>
        <time>2012-10-29T12:11:50Z</time>
      </trkpt>
      <trkpt lat="40.19257" lon="9.57742">
        <ele>160.9</ele>
        <time>2012-10-29T12:12:14Z</time>
      </trkpt>
      <trkpt lat="40.19261" lon="9.57741">
        <ele>161</ele>
        <time>2012-10-29T12:12:18Z</time>
      </trkpt>
      <trkpt lat="40.19266" lon="9.57743">
        <ele>160.7</ele>
        <time>2012-10-29T12:12:22Z</time>
      </trkpt>
      <trkpt lat="40.19271" lon="9.57741">
        <ele>160.5</ele>
        <time>2012-10-29T12:12:27Z</time>
      </trkpt>
      <trkpt lat="40.19274" lon="9.57738">
        <ele>160.3</ele>
        <time>2012-10-29T12:12:30Z</time>
      </trkpt>
      <trkpt lat="40.19281" lon="9.57725">
        <ele>159.2</ele>
        <time>2012-10-29T12:12:36Z</time>
      </trkpt>
      <trkpt lat="40.19287" lon="9.57721">
        <ele>159.4</ele>
        <time>2012-10-29T12:12:40Z</time>
      </trkpt>
      <trkpt lat="40.19324" lon="9.57714">
        <ele>143</ele>
        <time>2012-10-29T12:12:48Z</time>
      </trkpt>
      <trkpt lat="40.19334" lon="9.57715">
        <ele>153.5</ele>
        <time>2012-10-29T12:12:53Z</time>
      </trkpt>
      <trkpt lat="40.1936" lon="9.57701">
        <ele>150</ele>
        <time>2012-10-29T12:13:04Z</time>
      </trkpt>
      <trkpt lat="40.19378" lon="9.57702">
        <ele>149</ele>
        <time>2012-10-29T12:13:11Z</time>
      </trkpt>
      <trkpt lat="40.19389" lon="9.57706">
        <ele>147.3</ele>
        <time>2012-10-29T12:13:17Z</time>
      </trkpt>
      <trkpt lat="40.19404" lon="9.57706">
        <ele>145.1</ele>
        <time>2012-10-29T12:13:23Z</time>
      </trkpt>
      <trkpt lat="40.19425" lon="9.57714">
        <ele>147.9</ele>
        <time>2012-10-29T12:13:33Z</time>
      </trkpt>
      <trkpt lat="40.19431" lon="9.57719">
        <ele>146.2</ele>
        <time>2012-10-29T12:13:36Z</time>
      </trkpt>
      <trkpt lat="40.19451" lon="9.57725">
        <ele>148.4</ele>
        <time>2012-10-29T12:13:44Z</time>
      </trkpt>
      <trkpt lat="40.19474" lon="9.57726">
        <ele>152.6</ele>
        <time>2012-10-29T12:13:50Z</time>
      </trkpt>
      <trkpt lat="40.19496" lon="9.57732">
        <ele>156</ele>
        <time>2012-10-29T12:13:57Z</time>
      </trkpt>
      <trkpt lat="40.19505" lon="9.5774">
        <ele>155.2</ele>
        <time>2012-10-29T12:14:02Z</time>
      </trkpt>
      <trkpt lat="40.19523" lon="9.57746">
        <ele>154.7</ele>
        <time>2012-10-29T12:14:10Z</time>
      </trkpt>
      <trkpt lat="40.19529" lon="9.57752">
        <ele>154.3</ele>
        <time>2012-10-29T12:14:12Z</time>
      </trkpt>
      <trkpt lat="40.19545" lon="9.5776">
        <ele>154.2</ele>
        <time>2012-10-29T12:14:18Z</time>
      </trkpt>
      <trkpt lat="40.19564" lon="9.57774">
        <ele>154.3</ele>
        <time>2012-10-29T12:14:25Z</time>
      </trkpt>
      <trkpt lat="40.19578" lon="9.57779">
        <ele>154.2</ele>
        <time>2012-10-29T12:14:31Z</time>
      </trkpt>
      <trkpt lat="40.1959" lon="9.57787">
        <ele>154.7</ele>
        <time>2012-10-29T12:14:35Z</time>
      </trkpt>
      <trkpt lat="40.19611" lon="9.57793">
        <ele>154.2</ele>
        <time>2012-10-29T12:14:42Z</time>
      </trkpt>
      <trkpt lat="40.19637" lon="9.57807">
        <ele>154</ele>
        <time>2012-10-29T12:14:50Z</time>
      </trkpt>
      <trkpt lat="40.19666" lon="9.57829">
        <ele>153.4</ele>
        <time>2012-10-29T12:14:59Z</time>
      </trkpt>
      <trkpt lat="40.19695" lon="9.57846">
        <ele>152.8</ele>
        <time>2012-10-29T12:15:10Z</time>
      </trkpt>
      <trkpt lat="40.19724" lon="9.57875">
        <ele>152.4</ele>
        <time>2012-10-29T12:15:21Z</time>
      </trkpt>
      <trkpt lat="40.19732" lon="9.57886">
        <ele>151.3</ele>
        <time>2012-10-29T12:15:25Z</time>
      </trkpt>
      <trkpt lat="40.19746" lon="9.57902">
        <ele>150.4</ele>
        <time>2012-10-29T12:15:31Z</time>
      </trkpt>
      <trkpt lat="40.19764" lon="9.57914">
        <ele>150.2</ele>
        <time>2012-10-29T12:15:38Z</time>
      </trkpt>
      <trkpt lat="40.19772" lon="9.57915">
        <ele>150.5</ele>
        <time>2012-10-29T12:15:41Z</time>
      </trkpt>
      <trkpt lat="40.19779" lon="9.57918">
        <ele>151</ele>
        <time>2012-10-29T12:15:44Z</time>
      </trkpt>
      <trkpt lat="40.19798" lon="9.57938">
        <ele>151.8</ele>
        <time>2012-10-29T12:15:55Z</time>
      </trkpt>
      <trkpt lat="40.19814" lon="9.57952">
        <ele>150.8</ele>
        <time>2012-10-29T12:16:07Z</time>
      </trkpt>
      <trkpt lat="40.19821" lon="9.57953">
        <ele>150.5</ele>
        <time>2012-10-29T12:16:25Z</time>
      </trkpt>
      <trkpt lat="40.19824" lon="9.57956">
        <ele>150</ele>
        <time>2012-10-29T12:16:32Z</time>
      </trkpt>
      <trkpt lat="40.19829" lon="9.57961">
        <ele>150</ele>
        <time>2012-10-29T12:16:36Z</time>
      </trkpt>
      <trkpt lat="40.19831" lon="9.57967">
        <ele>147.4</ele>
        <time>2012-10-29T12:16:49Z</time>
      </trkpt>
      <trkpt lat="40.19834" lon="9.57967">
        <ele>147.5</ele>
        <time>2012-10-29T12:16:51Z</time>
      </trkpt>
      <trkpt lat="40.19841" lon="9.57965">
        <ele>147.6</ele>
        <time>2012-10-29T12:16:55Z</time>
      </trkpt>
      <trkpt lat="40.19844" lon="9.57967">
        <ele>146.2</ele>
        <time>2012-10-29T12:17:09Z</time>
      </trkpt>
      <trkpt lat="40.19855" lon="9.5798">
        <ele>142.3</ele>
        <time>2012-10-29T12:18:04Z</time>
      </trkpt>
      <trkpt lat="40.19865" lon="9.57985">
        <ele>141.3</ele>
        <time>2012-10-29T12:18:16Z</time>
      </trkpt>
      <trkpt lat="40.19868" lon="9.57989">
        <ele>141.1</ele>
        <time>2012-10-29T12:18:22Z</time>
      </trkpt>
      <trkpt lat="40.1987" lon="9.58001">
        <ele>137.3</ele>
        <time>2012-10-29T12:18:37Z</time>
      </trkpt>
      <trkpt lat="40.19874" lon="9.58004">
        <ele>136.3</ele>
        <time>2012-10-29T12:18:44Z</time>
      </trkpt>
      <trkpt lat="40.19877" lon="9.58011">
        <ele>129.7</ele>
        <time>2012-10-29T12:18:52Z</time>
      </trkpt>
      <trkpt lat="40.19876" lon="9.58009">
        <ele>138.6</ele>
        <time>2012-10-29T12:19:49Z</time>
      </trkpt>
      <trkpt lat="40.19881" lon="9.58007">
        <ele>129.1</ele>
        <time>2012-10-29T12:19:50Z</time>
      </trkpt>
      <trkpt lat="40.19888" lon="9.58015">
        <ele>128.5</ele>
        <time>2012-10-29T12:20:01Z</time>
      </trkpt>
      <trkpt lat="40.1989" lon="9.58022">
        <ele>128.7</ele>
        <time>2012-10-29T12:20:06Z</time>
      </trkpt>
      <trkpt lat="40.19906" lon="9.58035">
        <ele>130.2</ele>
        <time>2012-10-29T12:20:29Z</time>
      </trkpt>
      <trkpt lat="40.19913" lon="9.58042">
        <ele>131.7</ele>
        <time>2012-10-29T12:20:39Z</time>
      </trkpt>
      <trkpt lat="40.19918" lon="9.58045">
        <ele>131.6</ele>
        <time>2012-10-29T12:20:46Z</time>
      </trkpt>
      <trkpt lat="40.19922" lon="9.58041">
        <ele>131.6</ele>
        <time>2012-10-29T12:20:54Z</time>
      </trkpt>
      <trkpt lat="40.19927" lon="9.5805">
        <ele>132.9</ele>
        <time>2012-10-29T12:21:17Z</time>
      </trkpt>
      <trkpt lat="40.19932" lon="9.58052">
        <ele>132.7</ele>
        <time>2012-10-29T12:21:23Z</time>
      </trkpt>
      <trkpt lat="40.19939" lon="9.58061">
        <ele>133.8</ele>
        <time>2012-10-29T12:21:33Z</time>
      </trkpt>
      <trkpt lat="40.19948" lon="9.58064">
        <ele>134.4</ele>
        <time>2012-10-29T12:21:41Z</time>
      </trkpt>
      <trkpt lat="40.19953" lon="9.58076">
        <ele>136.1</ele>
        <time>2012-10-29T12:21:52Z</time>
      </trkpt>
      <trkpt lat="40.19956" lon="9.5808">
        <ele>136.9</ele>
        <time>2012-10-29T12:22:03Z</time>
      </trkpt>
      <trkpt lat="40.19962" lon="9.58078">
        <ele>137.6</ele>
        <time>2012-10-29T12:22:07Z</time>
      </trkpt>
      <trkpt lat="40.19966" lon="9.5808">
        <ele>137.6</ele>
        <time>2012-10-29T12:22:09Z</time>
      </trkpt>
      <trkpt lat="40.19979" lon="9.58098">
        <ele>138.3</ele>
        <time>2012-10-29T12:22:24Z</time>
      </trkpt>
      <trkpt lat="40.19983" lon="9.58101">
        <ele>137.8</ele>
        <time>2012-10-29T12:22:29Z</time>
      </trkpt>
      <trkpt lat="40.19988" lon="9.581">
        <ele>137</ele>
        <time>2012-10-29T12:23:09Z</time>
      </trkpt>
      <trkpt lat="40.19993" lon="9.58101">
        <ele>136.1</ele>
        <time>2012-10-29T12:23:13Z</time>
      </trkpt>
      <trkpt lat="40.19992" lon="9.58107">
        <ele>136.2</ele>
        <time>2012-10-29T12:23:21Z</time>
      </trkpt>
      <trkpt lat="40.19994" lon="9.58113">
        <ele>137.3</ele>
        <time>2012-10-29T12:23:30Z</time>
      </trkpt>
      <trkpt lat="40.2" lon="9.58112">
        <ele>136.8</ele>
        <time>2012-10-29T12:23:47Z</time>
      </trkpt>
      <trkpt lat="40.19997" lon="9.58117">
        <ele>136.8</ele>
        <time>2012-10-29T12:24:06Z</time>
      </trkpt>
      <trkpt lat="40.19999" lon="9.58122">
        <ele>135.1</ele>
        <time>2012-10-29T12:24:18Z</time>
      </trkpt>
      <trkpt lat="40.20003" lon="9.58125">
        <ele>134.8</ele>
        <time>2012-10-29T12:24:26Z</time>
      </trkpt>
      <trkpt lat="40.20005" lon="9.58131">
        <ele>134.7</ele>
        <time>2012-10-29T12:24:35Z</time>
      </trkpt>
      <trkpt lat="40.20009" lon="9.58133">
        <ele>135.5</ele>
        <time>2012-10-29T12:24:43Z</time>
      </trkpt>
      <trkpt lat="40.20022" lon="9.58134">
        <ele>144.1</ele>
        <time>2012-10-29T12:24:52Z</time>
      </trkpt>
      <trkpt lat="40.20022" lon="9.5814">
        <ele>138</ele>
        <time>2012-10-29T12:25:13Z</time>
      </trkpt>
      <trkpt lat="40.20028" lon="9.58156">
        <ele>135.8</ele>
        <time>2012-10-29T12:25:41Z</time>
      </trkpt>
      <trkpt lat="40.20031" lon="9.58161">
        <ele>134.2</ele>
        <time>2012-10-29T12:25:47Z</time>
      </trkpt>
      <trkpt lat="40.20036" lon="9.58163">
        <ele>133.5</ele>
        <time>2012-10-29T12:25:58Z</time>
      </trkpt>
      <trkpt lat="40.2004" lon="9.58168">
        <ele>133.7</ele>
        <time>2012-10-29T12:26:02Z</time>
      </trkpt>
      <trkpt lat="40.20046" lon="9.58182">
        <ele>133.5</ele>
        <time>2012-10-29T12:26:14Z</time>
      </trkpt>
      <trkpt lat="40.20048" lon="9.58202">
        <ele>133.2</ele>
        <time>2012-10-29T12:26:29Z</time>
      </trkpt>
      <trkpt lat="40.20054" lon="9.58212">
        <ele>134</ele>
        <time>2012-10-29T12:26:39Z</time>
      </trkpt>
      <trkpt lat="40.20056" lon="9.5822">
        <ele>134.6</ele>
        <time>2012-10-29T12:26:43Z</time>
      </trkpt>
      <trkpt lat="40.20042" lon="9.58228">
        <ele>136.6</ele>
        <time>2012-10-29T12:27:21Z</time>
      </trkpt>
      <trkpt lat="40.20041" lon="9.5824">
        <ele>136.8</ele>
        <time>2012-10-29T12:27:42Z</time>
      </trkpt>
      <trkpt lat="40.20046" lon="9.58252">
        <ele>138.3</ele>
        <time>2012-10-29T12:28:00Z</time>
      </trkpt>
      <trkpt lat="40.20044" lon="9.58259">
        <ele>138.8</ele>
        <time>2012-10-29T12:28:07Z</time>
      </trkpt>
      <trkpt lat="40.20045" lon="9.5827">
        <ele>139.4</ele>
        <time>2012-10-29T12:28:17Z</time>
      </trkpt>
      <trkpt lat="40.20043" lon="9.58277">
        <ele>139.3</ele>
        <time>2012-10-29T12:28:25Z</time>
      </trkpt>
      <trkpt lat="40.20047" lon="9.58279">
        <ele>141</ele>
        <time>2012-10-29T12:28:37Z</time>
      </trkpt>
      <trkpt lat="40.20052" lon="9.58289">
        <ele>142.4</ele>
        <time>2012-10-29T12:28:46Z</time>
      </trkpt>
      <trkpt lat="40.20054" lon="9.58301">
        <ele>143.1</ele>
        <time>2012-10-29T12:28:50Z</time>
      </trkpt>
      <trkpt lat="40.20063" lon="9.58314">
        <ele>143.6</ele>
        <time>2012-10-29T12:28:57Z</time>
      </trkpt>
      <trkpt lat="40.20072" lon="9.58332">
        <ele>144.9</ele>
        <time>2012-10-29T12:29:05Z</time>
      </trkpt>
      <trkpt lat="40.20083" lon="9.58346">
        <ele>145.5</ele>
        <time>2012-10-29T12:29:16Z</time>
      </trkpt>
      <trkpt lat="40.20109" lon="9.58365">
        <ele>144.4</ele>
        <time>2012-10-29T12:29:37Z</time>
      </trkpt>
      <trkpt lat="40.20117" lon="9.58371">
        <ele>142.9</ele>
        <time>2012-10-29T12:29:51Z</time>
      </trkpt>
      <trkpt lat="40.20128" lon="9.58374">
        <ele>141.5</ele>
        <time>2012-10-29T12:30:03Z</time>
      </trkpt>
      <trkpt lat="40.20131" lon="9.5838">
        <ele>142.7</ele>
        <time>2012-10-29T12:30:45Z</time>
      </trkpt>
      <trkpt lat="40.20135" lon="9.58382">
        <ele>143.2</ele>
        <time>2012-10-29T12:30:48Z</time>
      </trkpt>
      <trkpt lat="40.20148" lon="9.5838">
        <ele>144.1</ele>
        <time>2012-10-29T12:30:59Z</time>
      </trkpt>
      <trkpt lat="40.20154" lon="9.58383">
        <ele>143.7</ele>
        <time>2012-10-29T12:31:04Z</time>
      </trkpt>
      <trkpt lat="40.20163" lon="9.58385">
        <ele>143.8</ele>
        <time>2012-10-29T12:31:19Z</time>
      </trkpt>
      <trkpt lat="40.20167" lon="9.58388">
        <ele>143.4</ele>
        <time>2012-10-29T12:31:24Z</time>
      </trkpt>
      <trkpt lat="40.20181" lon="9.58394">
        <ele>143.4</ele>
        <time>2012-10-29T12:31:41Z</time>
      </trkpt>
      <trkpt lat="40.20191" lon="9.58389">
        <ele>144.6</ele>
        <time>2012-10-29T12:31:53Z</time>
      </trkpt>
      <trkpt lat="40.202" lon="9.58387">
        <ele>143</ele>
        <time>2012-10-29T12:32:05Z</time>
      </trkpt>
      <trkpt lat="40.2022" lon="9.58395">
        <ele>140.6</ele>
        <time>2012-10-29T12:32:26Z</time>
      </trkpt>
      <trkpt lat="40.20232" lon="9.58405">
        <ele>140.2</ele>
        <time>2012-10-29T12:32:35Z</time>
      </trkpt>
      <trkpt lat="40.20252" lon="9.58417">
        <ele>139.5</ele>
        <time>2012-10-29T12:33:00Z</time>
      </trkpt>
      <trkpt lat="40.20278" lon="9.58422">
        <ele>139.1</ele>
        <time>2012-10-29T12:33:21Z</time>
      </trkpt>
      <trkpt lat="40.2029" lon="9.5843">
        <ele>138.7</ele>
        <time>2012-10-29T12:33:33Z</time>
      </trkpt>
      <trkpt lat="40.20295" lon="9.58427">
        <ele>138.4</ele>
        <time>2012-10-29T12:33:35Z</time>
      </trkpt>
      <trkpt lat="40.20305" lon="9.58432">
        <ele>138.5</ele>
        <time>2012-10-29T12:33:42Z</time>
      </trkpt>
      <trkpt lat="40.20316" lon="9.58432">
        <ele>137.7</ele>
        <time>2012-10-29T12:33:48Z</time>
      </trkpt>
      <trkpt lat="40.20325" lon="9.58439">
        <ele>135.1</ele>
        <time>2012-10-29T12:33:54Z</time>
      </trkpt>
      <trkpt lat="40.20352" lon="9.58455">
        <ele>130.7</ele>
        <time>2012-10-29T12:34:22Z</time>
      </trkpt>
      <trkpt lat="40.20366" lon="9.58457">
        <ele>130.4</ele>
        <time>2012-10-29T12:34:40Z</time>
      </trkpt>
      <trkpt lat="40.20401" lon="9.58472">
        <ele>126</ele>
        <time>2012-10-29T12:34:58Z</time>
      </trkpt>
      <trkpt lat="40.20414" lon="9.58467">
        <ele>134.5</ele>
        <time>2012-10-29T12:35:11Z</time>
      </trkpt>
      <trkpt lat="40.20424" lon="9.5847">
        <ele>139.1</ele>
        <time>2012-10-29T12:35:20Z</time>
      </trkpt>
      <trkpt lat="40.20442" lon="9.58487">
        <ele>132.1</ele>
        <time>2012-10-29T12:35:34Z</time>
      </trkpt>
      <trkpt lat="40.20448" lon="9.58489">
        <ele>130.9</ele>
        <time>2012-10-29T12:35:38Z</time>
      </trkpt>
      <trkpt lat="40.20455" lon="9.58494">
        <ele>134</ele>
        <time>2012-10-29T12:35:54Z</time>
      </trkpt>
      <trkpt lat="40.20466" lon="9.58506">
        <ele>133.8</ele>
        <time>2012-10-29T12:36:02Z</time>
      </trkpt>
      <trkpt lat="40.2048" lon="9.58513">
        <ele>132.7</ele>
        <time>2012-10-29T12:36:11Z</time>
      </trkpt>
      <trkpt lat="40.20501" lon="9.58518">
        <ele>129.8</ele>
        <time>2012-10-29T12:36:24Z</time>
      </trkpt>
      <trkpt lat="40.20515" lon="9.58525">
        <ele>128.7</ele>
        <time>2012-10-29T12:36:37Z</time>
      </trkpt>
      <trkpt lat="40.2052" lon="9.58534">
        <ele>129</ele>
        <time>2012-10-29T12:36:44Z</time>
      </trkpt>
      <trkpt lat="40.20552" lon="9.58549">
        <ele>133.7</ele>
        <time>2012-10-29T12:36:59Z</time>
      </trkpt>
      <trkpt lat="40.20561" lon="9.58561">
        <ele>131.2</ele>
        <time>2012-10-29T12:37:09Z</time>
      </trkpt>
      <trkpt lat="40.20576" lon="9.58573">
        <ele>137</ele>
        <time>2012-10-29T12:37:21Z</time>
      </trkpt>
      <trkpt lat="40.20582" lon="9.58583">
        <ele>130.9</ele>
        <time>2012-10-29T12:37:29Z</time>
      </trkpt>
      <trkpt lat="40.20586" lon="9.58587">
        <ele>130.2</ele>
        <time>2012-10-29T12:37:33Z</time>
      </trkpt>
      <trkpt lat="40.20587" lon="9.58592">
        <ele>125.9</ele>
        <time>2012-10-29T12:37:39Z</time>
      </trkpt>
      <trkpt lat="40.20595" lon="9.586">
        <ele>126.2</ele>
        <time>2012-10-29T12:37:52Z</time>
      </trkpt>
      <trkpt lat="40.20615" lon="9.58609">
        <ele>129.9</ele>
        <time>2012-10-29T12:38:25Z</time>
      </trkpt>
      <trkpt lat="40.20649" lon="9.58637">
        <ele>125.4</ele>
        <time>2012-10-29T12:38:49Z</time>
      </trkpt>
      <trkpt lat="40.20667" lon="9.58656">
        <ele>121.3</ele>
        <time>2012-10-29T12:39:14Z</time>
      </trkpt>
      <trkpt lat="40.20681" lon="9.58663">
        <ele>123.3</ele>
        <time>2012-10-29T12:39:19Z</time>
      </trkpt>
      <trkpt lat="40.20685" lon="9.58667">
        <ele>124.4</ele>
        <time>2012-10-29T12:39:23Z</time>
      </trkpt>
      <trkpt lat="40.2069" lon="9.58667">
        <ele>124.5</ele>
        <time>2012-10-29T12:39:27Z</time>
      </trkpt>
      <trkpt lat="40.207" lon="9.58672">
        <ele>124.6</ele>
        <time>2012-10-29T12:39:40Z</time>
      </trkpt>
      <trkpt lat="40.20705" lon="9.58673">
        <ele>125.2</ele>
        <time>2012-10-29T12:39:47Z</time>
      </trkpt>
      <trkpt lat="40.20709" lon="9.58676">
        <ele>124.7</ele>
        <time>2012-10-29T12:39:50Z</time>
      </trkpt>
      <trkpt lat="40.20715" lon="9.58685">
        <ele>122.4</ele>
        <time>2012-10-29T12:39:56Z</time>
      </trkpt>
      <trkpt lat="40.20728" lon="9.58695">
        <ele>121.6</ele>
        <time>2012-10-29T12:40:11Z</time>
      </trkpt>
      <trkpt lat="40.20738" lon="9.58697">
        <ele>121.7</ele>
        <time>2012-10-29T12:40:26Z</time>
      </trkpt>
      <trkpt lat="40.20753" lon="9.58715">
        <ele>123.7</ele>
        <time>2012-10-29T12:40:49Z</time>
      </trkpt>
      <trkpt lat="40.20764" lon="9.58717">
        <ele>122.5</ele>
        <time>2012-10-29T12:41:06Z</time>
      </trkpt>
      <trkpt lat="40.20768" lon="9.5872">
        <ele>122.5</ele>
        <time>2012-10-29T12:41:09Z</time>
      </trkpt>
      <trkpt lat="40.20786" lon="9.58747">
        <ele>123.4</ele>
        <time>2012-10-29T12:41:34Z</time>
      </trkpt>
      <trkpt lat="40.2079" lon="9.58751">
        <ele>123.6</ele>
        <time>2012-10-29T12:41:40Z</time>
      </trkpt>
      <trkpt lat="40.20804" lon="9.58771">
        <ele>121.2</ele>
        <time>2012-10-29T12:41:59Z</time>
      </trkpt>
      <trkpt lat="40.20813" lon="9.58786">
        <ele>119.4</ele>
        <time>2012-10-29T12:42:12Z</time>
      </trkpt>
      <trkpt lat="40.20815" lon="9.58793">
        <ele>119.1</ele>
        <time>2012-10-29T12:42:16Z</time>
      </trkpt>
      <trkpt lat="40.20823" lon="9.58809">
        <ele>116.3</ele>
        <time>2012-10-29T12:42:39Z</time>
      </trkpt>
      <trkpt lat="40.20825" lon="9.58816">
        <ele>116</ele>
        <time>2012-10-29T12:42:44Z</time>
      </trkpt>
      <trkpt lat="40.20842" lon="9.58843">
        <ele>107.4</ele>
        <time>2012-10-29T12:42:58Z</time>
      </trkpt>
      <trkpt lat="40.20851" lon="9.58849">
        <ele>116.8</ele>
        <time>2012-10-29T12:43:05Z</time>
      </trkpt>
      <trkpt lat="40.20852" lon="9.58857">
        <ele>122.2</ele>
        <time>2012-10-29T12:43:12Z</time>
      </trkpt>
      <trkpt lat="40.20855" lon="9.58863">
        <ele>125.1</ele>
        <time>2012-10-29T12:43:16Z</time>
      </trkpt>
      <trkpt lat="40.20871" lon="9.58887">
        <ele>116.2</ele>
        <time>2012-10-29T12:43:44Z</time>
      </trkpt>
      <trkpt lat="40.20884" lon="9.58904">
        <ele>118.5</ele>
        <time>2012-10-29T12:43:58Z</time>
      </trkpt>
      <trkpt lat="40.20882" lon="9.58909">
        <ele>109.1</ele>
        <time>2012-10-29T12:43:59Z</time>
      </trkpt>
      <trkpt lat="40.20882" lon="9.58917">
        <ele>104.8</ele>
        <time>2012-10-29T12:44:02Z</time>
      </trkpt>
      <trkpt lat="40.20887" lon="9.58917">
        <ele>104.8</ele>
        <time>2012-10-29T12:44:28Z</time>
      </trkpt>
      <trkpt lat="40.20894" lon="9.58927">
        <ele>105.7</ele>
        <time>2012-10-29T12:44:37Z</time>
      </trkpt>
      <trkpt lat="40.20899" lon="9.58928">
        <ele>105.1</ele>
        <time>2012-10-29T12:44:44Z</time>
      </trkpt>
      <trkpt lat="40.20913" lon="9.58942">
        <ele>105.3</ele>
        <time>2012-10-29T12:45:07Z</time>
      </trkpt>
      <trkpt lat="40.20912" lon="9.58944">
        <ele>105.9</ele>
        <time>2012-10-29T12:45:08Z</time>
      </trkpt>
      <trkpt lat="40.20915" lon="9.5895">
        <ele>104.9</ele>
        <time>2012-10-29T12:45:14Z</time>
      </trkpt>
      <trkpt lat="40.20915" lon="9.58956">
        <ele>103</ele>
        <time>2012-10-29T12:45:25Z</time>
      </trkpt>
      <trkpt lat="40.20919" lon="9.58952">
        <ele>103.7</ele>
        <time>2012-10-29T12:45:32Z</time>
      </trkpt>
      <trkpt lat="40.20927" lon="9.58965">
        <ele>105.9</ele>
        <time>2012-10-29T12:45:48Z</time>
      </trkpt>
      <trkpt lat="40.20933" lon="9.58976">
        <ele>104.2</ele>
        <time>2012-10-29T12:45:57Z</time>
      </trkpt>
      <trkpt lat="40.20934" lon="9.58982">
        <ele>103.8</ele>
        <time>2012-10-29T12:46:06Z</time>
      </trkpt>
      <trkpt lat="40.20937" lon="9.58987">
        <ele>103.7</ele>
        <time>2012-10-29T12:46:24Z</time>
      </trkpt>
      <trkpt lat="40.20936" lon="9.58995">
        <ele>103.2</ele>
        <time>2012-10-29T12:46:30Z</time>
      </trkpt>
      <trkpt lat="40.20939" lon="9.59019">
        <ele>112.6</ele>
        <time>2012-10-29T12:47:09Z</time>
      </trkpt>
      <trkpt lat="40.20943" lon="9.59021">
        <ele>106.2</ele>
        <time>2012-10-29T12:47:16Z</time>
      </trkpt>
      <trkpt lat="40.20945" lon="9.59026">
        <ele>107.3</ele>
        <time>2012-10-29T12:47:23Z</time>
      </trkpt>
      <trkpt lat="40.20951" lon="9.59034">
        <ele>106.1</ele>
        <time>2012-10-29T12:47:34Z</time>
      </trkpt>
      <trkpt lat="40.20954" lon="9.59053">
        <ele>103.8</ele>
        <time>2012-10-29T12:47:46Z</time>
      </trkpt>
      <trkpt lat="40.20964" lon="9.59069">
        <ele>104.5</ele>
        <time>2012-10-29T12:47:59Z</time>
      </trkpt>
      <trkpt lat="40.20976" lon="9.59097">
        <ele>104.6</ele>
        <time>2012-10-29T12:48:17Z</time>
      </trkpt>
      <trkpt lat="40.20988" lon="9.59108">
        <ele>106.1</ele>
        <time>2012-10-29T12:48:36Z</time>
      </trkpt>
      <trkpt lat="40.20996" lon="9.59124">
        <ele>106.7</ele>
        <time>2012-10-29T12:48:44Z</time>
      </trkpt>
      <trkpt lat="40.21" lon="9.59163">
        <ele>95.6</ele>
        <time>2012-10-29T12:48:52Z</time>
      </trkpt>
      <trkpt lat="40.21004" lon="9.59185">
        <ele>138.6</ele>
        <time>2012-10-29T12:49:21Z</time>
      </trkpt>
      <trkpt lat="40.21003" lon="9.59193">
        <ele>134.2</ele>
        <time>2012-10-29T12:49:27Z</time>
      </trkpt>
      <trkpt lat="40.21005" lon="9.59197">
        <ele>123.5</ele>
        <time>2012-10-29T12:49:34Z</time>
      </trkpt>
      <trkpt lat="40.21011" lon="9.59199">
        <ele>121.5</ele>
        <time>2012-10-29T12:49:38Z</time>
      </trkpt>
      <trkpt lat="40.21015" lon="9.59204">
        <ele>118.7</ele>
        <time>2012-10-29T12:49:42Z</time>
      </trkpt>
      <trkpt lat="40.21017" lon="9.59227">
        <ele>109.2</ele>
        <time>2012-10-29T12:50:01Z</time>
      </trkpt>
      <trkpt lat="40.21032" lon="9.59234">
        <ele>106.5</ele>
        <time>2012-10-29T12:50:13Z</time>
      </trkpt>
      <trkpt lat="40.2104" lon="9.5924">
        <ele>104.8</ele>
        <time>2012-10-29T12:50:21Z</time>
      </trkpt>
      <trkpt lat="40.21046" lon="9.59239">
        <ele>103.5</ele>
        <time>2012-10-29T12:50:42Z</time>
      </trkpt>
      <trkpt lat="40.21052" lon="9.59244">
        <ele>99.9</ele>
        <time>2012-10-29T13:03:22Z</time>
      </trkpt>
      <trkpt lat="40.21053" lon="9.5925">
        <ele>99.8</ele>
        <time>2012-10-29T13:03:28Z</time>
      </trkpt>
      <trkpt lat="40.21062" lon="9.59257">
        <ele>99.9</ele>
        <time>2012-10-29T13:03:42Z</time>
      </trkpt>
      <trkpt lat="40.21065" lon="9.59263">
        <ele>100.4</ele>
        <time>2012-10-29T13:03:48Z</time>
      </trkpt>
      <trkpt lat="40.21074" lon="9.59267">
        <ele>100.4</ele>
        <time>2012-10-29T13:04:01Z</time>
      </trkpt>
      <trkpt lat="40.21076" lon="9.59271">
        <ele>100.5</ele>
        <time>2012-10-29T13:04:06Z</time>
      </trkpt>
      <trkpt lat="40.21074" lon="9.59278">
        <ele>100.7</ele>
        <time>2012-10-29T13:04:12Z</time>
      </trkpt>
      <trkpt lat="40.21074" lon="9.59284">
        <ele>101.1</ele>
        <time>2012-10-29T13:04:17Z</time>
      </trkpt>
      <trkpt lat="40.21077" lon="9.59288">
        <ele>101.2</ele>
        <time>2012-10-29T13:04:21Z</time>
      </trkpt>
      <trkpt lat="40.21086" lon="9.59294">
        <ele>101.5</ele>
        <time>2012-10-29T13:04:32Z</time>
      </trkpt>
      <trkpt lat="40.21089" lon="9.593">
        <ele>101.7</ele>
        <time>2012-10-29T13:04:38Z</time>
      </trkpt>
      <trkpt lat="40.21089" lon="9.59312">
        <ele>102.3</ele>
        <time>2012-10-29T13:04:49Z</time>
      </trkpt>
      <trkpt lat="40.21095" lon="9.59321">
        <ele>102.2</ele>
        <time>2012-10-29T13:05:04Z</time>
      </trkpt>
      <trkpt lat="40.211" lon="9.59324">
        <ele>102.1</ele>
        <time>2012-10-29T13:05:09Z</time>
      </trkpt>
      <trkpt lat="40.21111" lon="9.59347">
        <ele>102.2</ele>
        <time>2012-10-29T13:05:31Z</time>
      </trkpt>
      <trkpt lat="40.21123" lon="9.59361">
        <ele>102.1</ele>
        <time>2012-10-29T13:05:42Z</time>
      </trkpt>
      <trkpt lat="40.21136" lon="9.59389">
        <ele>102.3</ele>
        <time>2012-10-29T13:06:01Z</time>
      </trkpt>
      <trkpt lat="40.21158" lon="9.59415">
        <ele>103.6</ele>
        <time>2012-10-29T13:06:20Z</time>
      </trkpt>
      <trkpt lat="40.21168" lon="9.5944">
        <ele>105</ele>
        <time>2012-10-29T13:06:43Z</time>
      </trkpt>
      <trkpt lat="40.21176" lon="9.59442">
        <ele>106.3</ele>
        <time>2012-10-29T13:06:57Z</time>
      </trkpt>
      <trkpt lat="40.21179" lon="9.59448">
        <ele>107.1</ele>
        <time>2012-10-29T13:07:03Z</time>
      </trkpt>
      <trkpt lat="40.21183" lon="9.59448">
        <ele>108.2</ele>
        <time>2012-10-29T13:07:15Z</time>
      </trkpt>
      <trkpt lat="40.21186" lon="9.59452">
        <ele>108.2</ele>
        <time>2012-10-29T13:07:21Z</time>
      </trkpt>
      <trkpt lat="40.21191" lon="9.59452">
        <ele>108.1</ele>
        <time>2012-10-29T13:07:31Z</time>
      </trkpt>
      <trkpt lat="40.21196" lon="9.59456">
        <ele>107.5</ele>
        <time>2012-10-29T13:07:36Z</time>
      </trkpt>
      <trkpt lat="40.21203" lon="9.59465">
        <ele>108.4</ele>
        <time>2012-10-29T13:07:44Z</time>
      </trkpt>
      <trkpt lat="40.21205" lon="9.59462">
        <ele>106.2</ele>
        <time>2012-10-29T13:07:47Z</time>
      </trkpt>
      <trkpt lat="40.21216" lon="9.59461">
        <ele>106.4</ele>
        <time>2012-10-29T13:07:53Z</time>
      </trkpt>
      <trkpt lat="40.21224" lon="9.59475">
        <ele>104</ele>
        <time>2012-10-29T13:08:00Z</time>
      </trkpt>
      <trkpt lat="40.21228" lon="9.59475">
        <ele>102.7</ele>
        <time>2012-10-29T13:08:05Z</time>
      </trkpt>
      <trkpt lat="40.21233" lon="9.5947">
        <ele>101</ele>
        <time>2012-10-29T13:08:13Z</time>
      </trkpt>
      <trkpt lat="40.21242" lon="9.59475">
        <ele>96.1</ele>
        <time>2012-10-29T13:08:25Z</time>
      </trkpt>
      <trkpt lat="40.21246" lon="9.59478">
        <ele>95.9</ele>
        <time>2012-10-29T13:08:28Z</time>
      </trkpt>
      <trkpt lat="40.21254" lon="9.59494">
        <ele>97.5</ele>
        <time>2012-10-29T13:08:41Z</time>
      </trkpt>
      <trkpt lat="40.21259" lon="9.59493">
        <ele>97.3</ele>
        <time>2012-10-29T13:08:47Z</time>
      </trkpt>
      <trkpt lat="40.21259" lon="9.59487">
        <ele>97.8</ele>
        <time>2012-10-29T13:08:52Z</time>
      </trkpt>
      <trkpt lat="40.21262" lon="9.59484">
        <ele>97.8</ele>
        <time>2012-10-29T13:09:02Z</time>
      </trkpt>
      <trkpt lat="40.21267" lon="9.59486">
        <ele>97.4</ele>
        <time>2012-10-29T13:09:11Z</time>
      </trkpt>
      <trkpt lat="40.2128" lon="9.59479">
        <ele>98.9</ele>
        <time>2012-10-29T13:09:36Z</time>
      </trkpt>
      <trkpt lat="40.21289" lon="9.59484">
        <ele>98.8</ele>
        <time>2012-10-29T13:09:48Z</time>
      </trkpt>
      <trkpt lat="40.21308" lon="9.59488">
        <ele>96.6</ele>
        <time>2012-10-29T13:10:06Z</time>
      </trkpt>
      <trkpt lat="40.21318" lon="9.59492">
        <ele>96.3</ele>
        <time>2012-10-29T13:10:17Z</time>
      </trkpt>
      <trkpt lat="40.21323" lon="9.5949">
        <ele>96.5</ele>
        <time>2012-10-29T13:10:22Z</time>
      </trkpt>
      <trkpt lat="40.21338" lon="9.5949">
        <ele>95.8</ele>
        <time>2012-10-29T13:10:33Z</time>
      </trkpt>
      <trkpt lat="40.21347" lon="9.59495">
        <ele>95.8</ele>
        <time>2012-10-29T13:10:38Z</time>
      </trkpt>
      <trkpt lat="40.21351" lon="9.59501">
        <ele>95.4</ele>
        <time>2012-10-29T13:10:48Z</time>
      </trkpt>
      <trkpt lat="40.21359" lon="9.59496">
        <ele>95.4</ele>
        <time>2012-10-29T13:10:56Z</time>
      </trkpt>
      <trkpt lat="40.2137" lon="9.59495">
        <ele>94.7</ele>
        <time>2012-10-29T13:11:08Z</time>
      </trkpt>
      <trkpt lat="40.21373" lon="9.59498">
        <ele>97.4</ele>
        <time>2012-10-29T13:12:45Z</time>
      </trkpt>
      <trkpt lat="40.21377" lon="9.59504">
        <ele>97.3</ele>
        <time>2012-10-29T13:12:52Z</time>
      </trkpt>
      <trkpt lat="40.21385" lon="9.59513">
        <ele>97.5</ele>
        <time>2012-10-29T13:13:05Z</time>
      </trkpt>
      <trkpt lat="40.21394" lon="9.59516">
        <ele>97.3</ele>
        <time>2012-10-29T13:13:17Z</time>
      </trkpt>
      <trkpt lat="40.21405" lon="9.59522">
        <ele>95.2</ele>
        <time>2012-10-29T13:13:27Z</time>
      </trkpt>
      <trkpt lat="40.21403" lon="9.59528">
        <ele>94.8</ele>
        <time>2012-10-29T13:13:39Z</time>
      </trkpt>
      <trkpt lat="40.21414" lon="9.59547">
        <ele>94.9</ele>
        <time>2012-10-29T13:14:03Z</time>
      </trkpt>
      <trkpt lat="40.21419" lon="9.5955">
        <ele>95.2</ele>
        <time>2012-10-29T13:14:35Z</time>
      </trkpt>
      <trkpt lat="40.21425" lon="9.59556">
        <ele>96.2</ele>
        <time>2012-10-29T13:14:40Z</time>
      </trkpt>
      <trkpt lat="40.21438" lon="9.59559">
        <ele>97.4</ele>
        <time>2012-10-29T13:14:54Z</time>
      </trkpt>
      <trkpt lat="40.21453" lon="9.59578">
        <ele>94.9</ele>
        <time>2012-10-29T13:15:20Z</time>
      </trkpt>
      <trkpt lat="40.21453" lon="9.59584">
        <ele>94.7</ele>
        <time>2012-10-29T13:15:29Z</time>
      </trkpt>
      <trkpt lat="40.21461" lon="9.59589">
        <ele>94.9</ele>
        <time>2012-10-29T13:15:40Z</time>
      </trkpt>
      <trkpt lat="40.21465" lon="9.59594">
        <ele>95.1</ele>
        <time>2012-10-29T13:16:08Z</time>
      </trkpt>
      <trkpt lat="40.21478" lon="9.59599">
        <ele>93.3</ele>
        <time>2012-10-29T13:16:26Z</time>
      </trkpt>
      <trkpt lat="40.21483" lon="9.59603">
        <ele>93.7</ele>
        <time>2012-10-29T13:16:32Z</time>
      </trkpt>
      <trkpt lat="40.21488" lon="9.59615">
        <ele>93.2</ele>
        <time>2012-10-29T13:16:42Z</time>
      </trkpt>
      <trkpt lat="40.21502" lon="9.59633">
        <ele>92.8</ele>
        <time>2012-10-29T13:16:58Z</time>
      </trkpt>
      <trkpt lat="40.21511" lon="9.5964">
        <ele>92.6</ele>
        <time>2012-10-29T13:17:11Z</time>
      </trkpt>
      <trkpt lat="40.21518" lon="9.59647">
        <ele>89.6</ele>
        <time>2012-10-29T13:17:30Z</time>
      </trkpt>
      <trkpt lat="40.21529" lon="9.59653">
        <ele>88.8</ele>
        <time>2012-10-29T13:17:40Z</time>
      </trkpt>
      <trkpt lat="40.21537" lon="9.5966">
        <ele>88.7</ele>
        <time>2012-10-29T13:17:49Z</time>
      </trkpt>
      <trkpt lat="40.21542" lon="9.59672">
        <ele>89.9</ele>
        <time>2012-10-29T13:18:00Z</time>
      </trkpt>
      <trkpt lat="40.21551" lon="9.59677">
        <ele>90.2</ele>
        <time>2012-10-29T13:18:13Z</time>
      </trkpt>
      <trkpt lat="40.21558" lon="9.59685">
        <ele>89.8</ele>
        <time>2012-10-29T13:18:31Z</time>
      </trkpt>
      <trkpt lat="40.21563" lon="9.59686">
        <ele>90.7</ele>
        <time>2012-10-29T13:18:38Z</time>
      </trkpt>
      <trkpt lat="40.21574" lon="9.597">
        <ele>92.1</ele>
        <time>2012-10-29T13:18:57Z</time>
      </trkpt>
      <trkpt lat="40.21588" lon="9.59706">
        <ele>92.6</ele>
        <time>2012-10-29T13:19:09Z</time>
      </trkpt>
      <trkpt lat="40.21601" lon="9.59725">
        <ele>92.6</ele>
        <time>2012-10-29T13:19:34Z</time>
      </trkpt>
      <trkpt lat="40.21612" lon="9.59734">
        <ele>93.9</ele>
        <time>2012-10-29T13:20:06Z</time>
      </trkpt>
      <trkpt lat="40.21616" lon="9.59754">
        <ele>93.6</ele>
        <time>2012-10-29T13:20:28Z</time>
      </trkpt>
      <trkpt lat="40.2162" lon="9.59765">
        <ele>92.9</ele>
        <time>2012-10-29T13:20:54Z</time>
      </trkpt>
      <trkpt lat="40.2162" lon="9.59777">
        <ele>93.3</ele>
        <time>2012-10-29T13:21:08Z</time>
      </trkpt>
      <trkpt lat="40.21623" lon="9.59782">
        <ele>92.5</ele>
        <time>2012-10-29T13:21:15Z</time>
      </trkpt>
      <trkpt lat="40.21629" lon="9.59785">
        <ele>92.4</ele>
        <time>2012-10-29T13:21:22Z</time>
      </trkpt>
      <trkpt lat="40.2163" lon="9.59791">
        <ele>95.2</ele>
        <time>2012-10-29T13:21:49Z</time>
      </trkpt>
      <trkpt lat="40.21629" lon="9.59797">
        <ele>96</ele>
        <time>2012-10-29T13:22:00Z</time>
      </trkpt>
      <trkpt lat="40.21634" lon="9.59795">
        <ele>95.4</ele>
        <time>2012-10-29T13:22:11Z</time>
      </trkpt>
      <trkpt lat="40.21638" lon="9.59799">
        <ele>95.3</ele>
        <time>2012-10-29T13:22:14Z</time>
      </trkpt>
      <trkpt lat="40.2164" lon="9.59802">
        <ele>95.3</ele>
        <time>2012-10-29T13:22:16Z</time>
      </trkpt>
      <trkpt lat="40.21643" lon="9.59814">
        <ele>96</ele>
        <time>2012-10-29T13:22:25Z</time>
      </trkpt>
      <trkpt lat="40.21644" lon="9.59827">
        <ele>96.4</ele>
        <time>2012-10-29T13:22:33Z</time>
      </trkpt>
      <trkpt lat="40.21646" lon="9.59834">
        <ele>97.1</ele>
        <time>2012-10-29T13:22:40Z</time>
      </trkpt>
      <trkpt lat="40.21645" lon="9.59841">
        <ele>97.5</ele>
        <time>2012-10-29T13:22:46Z</time>
      </trkpt>
      <trkpt lat="40.21649" lon="9.59844">
        <ele>99.1</ele>
        <time>2012-10-29T13:23:10Z</time>
      </trkpt>
      <trkpt lat="40.21653" lon="9.59857">
        <ele>100.2</ele>
        <time>2012-10-29T13:23:21Z</time>
      </trkpt>
      <trkpt lat="40.21651" lon="9.59875">
        <ele>102.4</ele>
        <time>2012-10-29T13:23:38Z</time>
      </trkpt>
      <trkpt lat="40.21653" lon="9.59881">
        <ele>102.9</ele>
        <time>2012-10-29T13:23:45Z</time>
      </trkpt>
      <trkpt lat="40.21654" lon="9.59891">
        <ele>104.4</ele>
        <time>2012-10-29T13:23:56Z</time>
      </trkpt>
      <trkpt lat="40.21657" lon="9.59898">
        <ele>105.2</ele>
        <time>2012-10-29T13:24:02Z</time>
      </trkpt>
      <trkpt lat="40.21662" lon="9.59901">
        <ele>106.2</ele>
        <time>2012-10-29T13:24:07Z</time>
      </trkpt>
      <trkpt lat="40.21665" lon="9.59914">
        <ele>108.4</ele>
        <time>2012-10-29T13:24:17Z</time>
      </trkpt>
      <trkpt lat="40.21664" lon="9.5992">
        <ele>108.5</ele>
        <time>2012-10-29T13:24:24Z</time>
      </trkpt>
      <trkpt lat="40.21673" lon="9.5994">
        <ele>111.6</ele>
        <time>2012-10-29T13:24:44Z</time>
      </trkpt>
      <trkpt lat="40.2167" lon="9.59954">
        <ele>116</ele>
        <time>2012-10-29T13:24:47Z</time>
      </trkpt>
      <trkpt lat="40.21671" lon="9.5996">
        <ele>120</ele>
        <time>2012-10-29T13:24:48Z</time>
      </trkpt>
      <trkpt lat="40.21669" lon="9.59962">
        <ele>121.8</ele>
        <time>2012-10-29T13:24:49Z</time>
      </trkpt>
      <trkpt lat="40.21672" lon="9.59968">
        <ele>123.1</ele>
        <time>2012-10-29T13:24:52Z</time>
      </trkpt>
      <trkpt lat="40.2167" lon="9.59976">
        <ele>117.9</ele>
        <time>2012-10-29T13:24:55Z</time>
      </trkpt>
      <trkpt lat="40.21671" lon="9.59981">
        <ele>118.4</ele>
        <time>2012-10-29T13:24:59Z</time>
      </trkpt>
      <trkpt lat="40.21678" lon="9.59991">
        <ele>122.6</ele>
        <time>2012-10-29T13:25:08Z</time>
      </trkpt>
      <trkpt lat="40.21681" lon="9.60011">
        <ele>117.2</ele>
        <time>2012-10-29T13:25:23Z</time>
      </trkpt>
      <trkpt lat="40.21677" lon="9.60023">
        <ele>118.5</ele>
        <time>2012-10-29T13:25:33Z</time>
      </trkpt>
      <trkpt lat="40.21677" lon="9.60037">
        <ele>122.4</ele>
        <time>2012-10-29T13:25:45Z</time>
      </trkpt>
      <trkpt lat="40.21675" lon="9.60043">
        <ele>123.3</ele>
        <time>2012-10-29T13:25:50Z</time>
      </trkpt>
      <trkpt lat="40.21674" lon="9.60053">
        <ele>124.6</ele>
        <time>2012-10-29T13:26:00Z</time>
      </trkpt>
      <trkpt lat="40.21676" lon="9.60062">
        <ele>124.7</ele>
        <time>2012-10-29T13:26:06Z</time>
      </trkpt>
      <trkpt lat="40.21679" lon="9.60066">
        <ele>124.7</ele>
        <time>2012-10-29T13:26:12Z</time>
      </trkpt>
      <trkpt lat="40.21682" lon="9.60084">
        <ele>122.6</ele>
        <time>2012-10-29T13:26:28Z</time>
      </trkpt>
      <trkpt lat="40.21679" lon="9.60096">
        <ele>123</ele>
        <time>2012-10-29T13:26:41Z</time>
      </trkpt>
      <trkpt lat="40.21684" lon="9.60134">
        <ele>118.2</ele>
        <time>2012-10-29T13:27:05Z</time>
      </trkpt>
      <trkpt lat="40.21681" lon="9.60154">
        <ele>117.7</ele>
        <time>2012-10-29T13:27:17Z</time>
      </trkpt>
      <trkpt lat="40.21684" lon="9.60181">
        <ele>116.7</ele>
        <time>2012-10-29T13:27:33Z</time>
      </trkpt>
      <trkpt lat="40.21684" lon="9.60189">
        <ele>116.4</ele>
        <time>2012-10-29T13:27:38Z</time>
      </trkpt>
      <trkpt lat="40.2168" lon="9.602">
        <ele>110.7</ele>
        <time>2012-10-29T13:27:49Z</time>
      </trkpt>
      <trkpt lat="40.21679" lon="9.60212">
        <ele>108.9</ele>
        <time>2012-10-29T13:27:57Z</time>
      </trkpt>
      <trkpt lat="40.21672" lon="9.60229">
        <ele>105.2</ele>
        <time>2012-10-29T13:28:09Z</time>
      </trkpt>
      <trkpt lat="40.21672" lon="9.60251">
        <ele>103.7</ele>
        <time>2012-10-29T13:28:22Z</time>
      </trkpt>
      <trkpt lat="40.21676" lon="9.60269">
        <ele>102.8</ele>
        <time>2012-10-29T13:28:36Z</time>
      </trkpt>
      <trkpt lat="40.21676" lon="9.60274">
        <ele>101</ele>
        <time>2012-10-29T13:28:45Z</time>
      </trkpt>
      <trkpt lat="40.21672" lon="9.60286">
        <ele>101.1</ele>
        <time>2012-10-29T13:28:53Z</time>
      </trkpt>
      <trkpt lat="40.21672" lon="9.60292">
        <ele>100.7</ele>
        <time>2012-10-29T13:28:57Z</time>
      </trkpt>
      <trkpt lat="40.2168" lon="9.60308">
        <ele>98.7</ele>
        <time>2012-10-29T13:29:09Z</time>
      </trkpt>
      <trkpt lat="40.21688" lon="9.60321">
        <ele>97.8</ele>
        <time>2012-10-29T13:29:20Z</time>
      </trkpt>
      <trkpt lat="40.21713" lon="9.60347">
        <ele>99.5</ele>
        <time>2012-10-29T13:30:02Z</time>
      </trkpt>
      <trkpt lat="40.21714" lon="9.60351">
        <ele>99.7</ele>
        <time>2012-10-29T13:30:14Z</time>
      </trkpt>
      <trkpt lat="40.21723" lon="9.6036">
        <ele>100.2</ele>
        <time>2012-10-29T13:30:23Z</time>
      </trkpt>
      <trkpt lat="40.21724" lon="9.60366">
        <ele>101</ele>
        <time>2012-10-29T13:30:34Z</time>
      </trkpt>
      <trkpt lat="40.21729" lon="9.60371">
        <ele>101.3</ele>
        <time>2012-10-29T13:30:39Z</time>
      </trkpt>
      <trkpt lat="40.21731" lon="9.60377">
        <ele>101.5</ele>
        <time>2012-10-29T13:30:44Z</time>
      </trkpt>
      <trkpt lat="40.21732" lon="9.6039">
        <ele>103.7</ele>
        <time>2012-10-29T13:30:47Z</time>
      </trkpt>
      <trkpt lat="40.21736" lon="9.60392">
        <ele>106.8</ele>
        <time>2012-10-29T13:30:48Z</time>
      </trkpt>
      <trkpt lat="40.21741" lon="9.60392">
        <ele>112.6</ele>
        <time>2012-10-29T13:30:50Z</time>
      </trkpt>
      <trkpt lat="40.21743" lon="9.60397">
        <ele>113.6</ele>
        <time>2012-10-29T13:30:54Z</time>
      </trkpt>
      <trkpt lat="40.21747" lon="9.60396">
        <ele>115.9</ele>
        <time>2012-10-29T13:30:55Z</time>
      </trkpt>
      <trkpt lat="40.21748" lon="9.60401">
        <ele>120.5</ele>
        <time>2012-10-29T13:31:02Z</time>
      </trkpt>
      <trkpt lat="40.21754" lon="9.60419">
        <ele>134.1</ele>
        <time>2012-10-29T13:31:16Z</time>
      </trkpt>
      <trkpt lat="40.21759" lon="9.60424">
        <ele>149.3</ele>
        <time>2012-10-29T13:31:21Z</time>
      </trkpt>
      <trkpt lat="40.21766" lon="9.60428">
        <ele>165.8</ele>
        <time>2012-10-29T13:31:27Z</time>
      </trkpt>
      <trkpt lat="40.21771" lon="9.60433">
        <ele>168.5</ele>
        <time>2012-10-29T13:31:30Z</time>
      </trkpt>
      <trkpt lat="40.21777" lon="9.60453">
        <ele>158.4</ele>
        <time>2012-10-29T13:31:40Z</time>
      </trkpt>
      <trkpt lat="40.21776" lon="9.60459">
        <ele>159.2</ele>
        <time>2012-10-29T13:31:45Z</time>
      </trkpt>
      <trkpt lat="40.21772" lon="9.60463">
        <ele>159.2</ele>
        <time>2012-10-29T13:31:51Z</time>
      </trkpt>
      <trkpt lat="40.2177" lon="9.6047">
        <ele>157.4</ele>
        <time>2012-10-29T13:31:58Z</time>
      </trkpt>
      <trkpt lat="40.21767" lon="9.60474">
        <ele>156.5</ele>
        <time>2012-10-29T13:32:05Z</time>
      </trkpt>
      <trkpt lat="40.21762" lon="9.60473">
        <ele>155.8</ele>
        <time>2012-10-29T13:32:10Z</time>
      </trkpt>
      <trkpt lat="40.21758" lon="9.60476">
        <ele>155.5</ele>
        <time>2012-10-29T13:32:13Z</time>
      </trkpt>
      <trkpt lat="40.21749" lon="9.60492">
        <ele>156.4</ele>
        <time>2012-10-29T13:32:20Z</time>
      </trkpt>
      <trkpt lat="40.21747" lon="9.60502">
        <ele>154.3</ele>
        <time>2012-10-29T13:32:26Z</time>
      </trkpt>
      <trkpt lat="40.21751" lon="9.60516">
        <ele>154.3</ele>
        <time>2012-10-29T13:32:35Z</time>
      </trkpt>
      <trkpt lat="40.2175" lon="9.60524">
        <ele>156.8</ele>
        <time>2012-10-29T13:32:42Z</time>
      </trkpt>
      <trkpt lat="40.21747" lon="9.60528">
        <ele>159.3</ele>
        <time>2012-10-29T13:32:46Z</time>
      </trkpt>
      <trkpt lat="40.21742" lon="9.60531">
        <ele>163.3</ele>
        <time>2012-10-29T13:32:54Z</time>
      </trkpt>
      <trkpt lat="40.21734" lon="9.6054">
        <ele>172.6</ele>
        <time>2012-10-29T13:33:06Z</time>
      </trkpt>
      <trkpt lat="40.21726" lon="9.60545">
        <ele>178.9</ele>
        <time>2012-10-29T13:33:15Z</time>
      </trkpt>
      <trkpt lat="40.21711" lon="9.6057">
        <ele>184.2</ele>
        <time>2012-10-29T13:33:41Z</time>
      </trkpt>
      <trkpt lat="40.21706" lon="9.60573">
        <ele>184.8</ele>
        <time>2012-10-29T13:33:45Z</time>
      </trkpt>
      <trkpt lat="40.21703" lon="9.60579">
        <ele>186.1</ele>
        <time>2012-10-29T13:33:50Z</time>
      </trkpt>
      <trkpt lat="40.217" lon="9.60591">
        <ele>186.3</ele>
        <time>2012-10-29T13:33:59Z</time>
      </trkpt>
      <trkpt lat="40.21684" lon="9.60617">
        <ele>179.4</ele>
        <time>2012-10-29T13:34:28Z</time>
      </trkpt>
      <trkpt lat="40.21673" lon="9.60639">
        <ele>174.4</ele>
        <time>2012-10-29T13:34:53Z</time>
      </trkpt>
      <trkpt lat="40.21675" lon="9.60651">
        <ele>174.1</ele>
        <time>2012-10-29T13:35:04Z</time>
      </trkpt>
      <trkpt lat="40.21675" lon="9.6067">
        <ele>173.7</ele>
        <time>2012-10-29T13:35:19Z</time>
      </trkpt>
      <trkpt lat="40.21687" lon="9.60696">
        <ele>175.9</ele>
        <time>2012-10-29T13:35:39Z</time>
      </trkpt>
      <trkpt lat="40.21695" lon="9.60708">
        <ele>176.1</ele>
        <time>2012-10-29T13:35:48Z</time>
      </trkpt>
      <trkpt lat="40.21699" lon="9.60705">
        <ele>150.2</ele>
        <time>2012-10-29T13:35:59Z</time>
      </trkpt>
      <trkpt lat="40.21703" lon="9.6071">
        <ele>129.5</ele>
        <time>2012-10-29T13:36:25Z</time>
      </trkpt>
      <trkpt lat="40.21703" lon="9.60721">
        <ele>125.7</ele>
        <time>2012-10-29T13:36:37Z</time>
      </trkpt>
      <trkpt lat="40.21721" lon="9.60743">
        <ele>120.8</ele>
        <time>2012-10-29T13:36:51Z</time>
      </trkpt>
      <trkpt lat="40.21729" lon="9.60749">
        <ele>120.7</ele>
        <time>2012-10-29T13:36:57Z</time>
      </trkpt>
      <trkpt lat="40.21741" lon="9.60748">
        <ele>106.3</ele>
        <time>2012-10-29T13:37:20Z</time>
      </trkpt>
      <trkpt lat="40.2174" lon="9.60742">
        <ele>99.2</ele>
        <time>2012-10-29T13:37:40Z</time>
      </trkpt>
      <trkpt lat="40.21745" lon="9.60739">
        <ele>96.6</ele>
        <time>2012-10-29T13:37:46Z</time>
      </trkpt>
      <trkpt lat="40.2175" lon="9.60741">
        <ele>94.8</ele>
        <time>2012-10-29T13:37:54Z</time>
      </trkpt>
      <trkpt lat="40.21755" lon="9.6074">
        <ele>94.3</ele>
        <time>2012-10-29T13:38:02Z</time>
      </trkpt>
      <trkpt lat="40.21763" lon="9.60746">
        <ele>89.7</ele>
        <time>2012-10-29T13:38:18Z</time>
      </trkpt>
      <trkpt lat="40.21778" lon="9.6075">
        <ele>88.1</ele>
        <time>2012-10-29T13:38:30Z</time>
      </trkpt>
      <trkpt lat="40.21793" lon="9.6076">
        <ele>84.7</ele>
        <time>2012-10-29T13:38:38Z</time>
      </trkpt>
      <trkpt lat="40.21815" lon="9.6077">
        <ele>82.8</ele>
        <time>2012-10-29T13:38:52Z</time>
      </trkpt>
      <trkpt lat="40.21856" lon="9.60776">
        <ele>76</ele>
        <time>2012-10-29T13:39:36Z</time>
      </trkpt>
      <trkpt lat="40.2188" lon="9.60785">
        <ele>79.4</ele>
        <time>2012-10-29T13:40:02Z</time>
      </trkpt>
      <trkpt lat="40.21887" lon="9.60792">
        <ele>80.3</ele>
        <time>2012-10-29T13:40:10Z</time>
      </trkpt>
      <trkpt lat="40.21895" lon="9.60802">
        <ele>81.3</ele>
        <time>2012-10-29T13:40:20Z</time>
      </trkpt>
      <trkpt lat="40.21902" lon="9.60817">
        <ele>77.7</ele>
        <time>2012-10-29T13:40:38Z</time>
      </trkpt>
      <trkpt lat="40.21908" lon="9.60819">
        <ele>76.1</ele>
        <time>2012-10-29T13:40:44Z</time>
      </trkpt>
      <trkpt lat="40.21905" lon="9.60841">
        <ele>85.1</ele>
        <time>2012-10-29T13:40:49Z</time>
      </trkpt>
      <trkpt lat="40.21908" lon="9.60853">
        <ele>71.2</ele>
        <time>2012-10-29T13:41:42Z</time>
      </trkpt>
      <trkpt lat="40.21906" lon="9.60858">
        <ele>70.5</ele>
        <time>2012-10-29T13:41:46Z</time>
      </trkpt>
      <trkpt lat="40.21903" lon="9.60871">
        <ele>66.5</ele>
        <time>2012-10-29T13:41:56Z</time>
      </trkpt>
      <trkpt lat="40.21904" lon="9.6089">
        <ele>64.4</ele>
        <time>2012-10-29T13:42:09Z</time>
      </trkpt>
      <trkpt lat="40.21902" lon="9.60899">
        <ele>63.6</ele>
        <time>2012-10-29T13:42:15Z</time>
      </trkpt>
      <trkpt lat="40.21903" lon="9.60905">
        <ele>63.5</ele>
        <time>2012-10-29T13:42:19Z</time>
      </trkpt>
      <trkpt lat="40.21899" lon="9.60916">
        <ele>64.1</ele>
        <time>2012-10-29T13:42:29Z</time>
      </trkpt>
      <trkpt lat="40.21895" lon="9.60921">
        <ele>64.3</ele>
        <time>2012-10-29T13:42:35Z</time>
      </trkpt>
      <trkpt lat="40.21894" lon="9.60927">
        <ele>64.6</ele>
        <time>2012-10-29T13:42:39Z</time>
      </trkpt>
      <trkpt lat="40.21895" lon="9.60934">
        <ele>63.9</ele>
        <time>2012-10-29T13:42:44Z</time>
      </trkpt>
      <trkpt lat="40.21893" lon="9.60937">
        <ele>66.1</ele>
        <time>2012-10-29T13:42:46Z</time>
      </trkpt>
      <trkpt lat="40.21897" lon="9.60944">
        <ele>59</ele>
        <time>2012-10-29T13:42:48Z</time>
      </trkpt>
      <trkpt lat="40.21897" lon="9.60956">
        <ele>67.3</ele>
        <time>2012-10-29T13:43:18Z</time>
      </trkpt>
      <trkpt lat="40.21902" lon="9.60967">
        <ele>65.3</ele>
        <time>2012-10-29T13:43:29Z</time>
      </trkpt>
      <trkpt lat="40.21911" lon="9.60973">
        <ele>61.4</ele>
        <time>2012-10-29T13:43:38Z</time>
      </trkpt>
      <trkpt lat="40.21919" lon="9.60984">
        <ele>62.5</ele>
        <time>2012-10-29T13:43:49Z</time>
      </trkpt>
      <trkpt lat="40.21922" lon="9.60987">
        <ele>62.5</ele>
        <time>2012-10-29T13:43:55Z</time>
      </trkpt>
      <trkpt lat="40.21928" lon="9.60987">
        <ele>61.2</ele>
        <time>2012-10-29T13:44:02Z</time>
      </trkpt>
      <trkpt lat="40.21931" lon="9.60991">
        <ele>60.4</ele>
        <time>2012-10-29T13:44:08Z</time>
      </trkpt>
      <trkpt lat="40.21935" lon="9.60993">
        <ele>59.9</ele>
        <time>2012-10-29T13:44:14Z</time>
      </trkpt>
      <trkpt lat="40.21936" lon="9.60992">
        <ele>59.8</ele>
        <time>2012-10-29T13:44:15Z</time>
      </trkpt>
      <trkpt lat="40.21945" lon="9.60997">
        <ele>59.2</ele>
        <time>2012-10-29T13:44:48Z</time>
      </trkpt>
      <trkpt lat="40.21952" lon="9.61006">
        <ele>60.7</ele>
        <time>2012-10-29T13:45:54Z</time>
      </trkpt>
      <trkpt lat="40.21956" lon="9.61007">
        <ele>60.4</ele>
        <time>2012-10-29T13:45:58Z</time>
      </trkpt>
      <trkpt lat="40.2197" lon="9.60998">
        <ele>58.8</ele>
        <time>2012-10-29T13:46:10Z</time>
      </trkpt>
      <trkpt lat="40.21975" lon="9.60997">
        <ele>59.2</ele>
        <time>2012-10-29T13:46:15Z</time>
      </trkpt>
      <trkpt lat="40.21988" lon="9.60991">
        <ele>58.8</ele>
        <time>2012-10-29T13:46:29Z</time>
      </trkpt>
      <trkpt lat="40.21989" lon="9.60991">
        <ele>59</ele>
        <time>2012-10-29T13:46:30Z</time>
      </trkpt>
      <trkpt lat="40.21991" lon="9.60997">
        <ele>59.7</ele>
        <time>2012-10-29T13:46:36Z</time>
      </trkpt>
      <trkpt lat="40.21995" lon="9.60998">
        <ele>60.1</ele>
        <time>2012-10-29T13:46:44Z</time>
      </trkpt>
      <trkpt lat="40.21997" lon="9.60994">
        <ele>56.7</ele>
        <time>2012-10-29T13:46:48Z</time>
      </trkpt>
      <trkpt lat="40.21999" lon="9.61002">
        <ele>61</ele>
        <time>2012-10-29T13:46:49Z</time>
      </trkpt>
      <trkpt lat="40.22011" lon="9.60993">
        <ele>63.3</ele>
        <time>2012-10-29T13:46:58Z</time>
      </trkpt>
      <trkpt lat="40.22017" lon="9.60994">
        <ele>57.3</ele>
        <time>2012-10-29T13:47:05Z</time>
      </trkpt>
      <trkpt lat="40.22024" lon="9.61">
        <ele>60</ele>
        <time>2012-10-29T13:47:17Z</time>
      </trkpt>
      <trkpt lat="40.2203" lon="9.61">
        <ele>59.5</ele>
        <time>2012-10-29T13:47:23Z</time>
      </trkpt>
      <trkpt lat="40.22039" lon="9.61005">
        <ele>63.4</ele>
        <time>2012-10-29T13:47:33Z</time>
      </trkpt>
      <trkpt lat="40.22047" lon="9.61006">
        <ele>65.3</ele>
        <time>2012-10-29T13:47:37Z</time>
      </trkpt>
      <trkpt lat="40.2205" lon="9.61004">
        <ele>65.2</ele>
        <time>2012-10-29T13:47:40Z</time>
      </trkpt>
      <trkpt lat="40.22053" lon="9.60999">
        <ele>65.5</ele>
        <time>2012-10-29T13:47:44Z</time>
      </trkpt>
      <trkpt lat="40.22069" lon="9.60981">
        <ele>74.5</ele>
        <time>2012-10-29T13:47:50Z</time>
      </trkpt>
      <trkpt lat="40.2207" lon="9.60979">
        <ele>77.2</ele>
        <time>2012-10-29T13:47:52Z</time>
      </trkpt>
      <trkpt lat="40.22071" lon="9.60974">
        <ele>78.2</ele>
        <time>2012-10-29T13:47:53Z</time>
      </trkpt>
      <trkpt lat="40.22082" lon="9.60963">
        <ele>81.7</ele>
        <time>2012-10-29T13:48:04Z</time>
      </trkpt>
      <trkpt lat="40.22099" lon="9.60968">
        <ele>84.2</ele>
        <time>2012-10-29T13:48:17Z</time>
      </trkpt>
      <trkpt lat="40.22108" lon="9.60974">
        <ele>78.6</ele>
        <time>2012-10-29T13:48:29Z</time>
      </trkpt>
      <trkpt lat="40.22138" lon="9.60956">
        <ele>76.1</ele>
        <time>2012-10-29T13:48:49Z</time>
      </trkpt>
      <trkpt lat="40.22146" lon="9.60967">
        <ele>102.3</ele>
        <time>2012-10-29T13:49:02Z</time>
      </trkpt>
      <trkpt lat="40.22148" lon="9.60973">
        <ele>114</ele>
        <time>2012-10-29T13:49:06Z</time>
      </trkpt>
      <trkpt lat="40.22166" lon="9.60984">
        <ele>134</ele>
        <time>2012-10-29T13:49:22Z</time>
      </trkpt>
      <trkpt lat="40.22169" lon="9.60996">
        <ele>141.3</ele>
        <time>2012-10-29T13:49:30Z</time>
      </trkpt>
      <trkpt lat="40.22172" lon="9.61">
        <ele>140.6</ele>
        <time>2012-10-29T13:49:35Z</time>
      </trkpt>
      <trkpt lat="40.22177" lon="9.61001">
        <ele>134.5</ele>
        <time>2012-10-29T13:49:39Z</time>
      </trkpt>
      <trkpt lat="40.22181" lon="9.60994">
        <ele>122.6</ele>
        <time>2012-10-29T13:49:44Z</time>
      </trkpt>
      <trkpt lat="40.22186" lon="9.60991">
        <ele>116.8</ele>
        <time>2012-10-29T13:49:51Z</time>
      </trkpt>
      <trkpt lat="40.22198" lon="9.60993">
        <ele>110.8</ele>
        <time>2012-10-29T13:49:57Z</time>
      </trkpt>
      <trkpt lat="40.22229" lon="9.60992">
        <ele>73</ele>
        <time>2012-10-29T13:50:21Z</time>
      </trkpt>
      <trkpt lat="40.22239" lon="9.60993">
        <ele>70.8</ele>
        <time>2012-10-29T13:50:27Z</time>
      </trkpt>
      <trkpt lat="40.22246" lon="9.61002">
        <ele>68.4</ele>
        <time>2012-10-29T13:50:33Z</time>
      </trkpt>
      <trkpt lat="40.22256" lon="9.6102">
        <ele>64.3</ele>
        <time>2012-10-29T13:50:46Z</time>
      </trkpt>
      <trkpt lat="40.22257" lon="9.61026">
        <ele>63.5</ele>
        <time>2012-10-29T13:50:54Z</time>
      </trkpt>
      <trkpt lat="40.22254" lon="9.61038">
        <ele>62.5</ele>
        <time>2012-10-29T13:51:09Z</time>
      </trkpt>
      <trkpt lat="40.22257" lon="9.61063">
        <ele>61.5</ele>
        <time>2012-10-29T13:51:25Z</time>
      </trkpt>
      <trkpt lat="40.22257" lon="9.61071">
        <ele>61.2</ele>
        <time>2012-10-29T13:51:30Z</time>
      </trkpt>
      <trkpt lat="40.22253" lon="9.61076">
        <ele>60.7</ele>
        <time>2012-10-29T13:51:35Z</time>
      </trkpt>
      <trkpt lat="40.22251" lon="9.61082">
        <ele>60.7</ele>
        <time>2012-10-29T13:51:39Z</time>
      </trkpt>
      <trkpt lat="40.22255" lon="9.61094">
        <ele>60.2</ele>
        <time>2012-10-29T13:51:48Z</time>
      </trkpt>
      <trkpt lat="40.22254" lon="9.61118">
        <ele>59.3</ele>
        <time>2012-10-29T13:52:03Z</time>
      </trkpt>
      <trkpt lat="40.22258" lon="9.61143">
        <ele>58</ele>
        <time>2012-10-29T13:52:21Z</time>
      </trkpt>
      <trkpt lat="40.22258" lon="9.61164">
        <ele>57.8</ele>
        <time>2012-10-29T13:52:35Z</time>
      </trkpt>
      <trkpt lat="40.22261" lon="9.61172">
        <ele>57.6</ele>
        <time>2012-10-29T13:52:41Z</time>
      </trkpt>
      <trkpt lat="40.22259" lon="9.61183">
        <ele>57.8</ele>
        <time>2012-10-29T13:52:50Z</time>
      </trkpt>
      <trkpt lat="40.22259" lon="9.61197">
        <ele>58.2</ele>
        <time>2012-10-29T13:53:02Z</time>
      </trkpt>
      <trkpt lat="40.22257" lon="9.61202">
        <ele>57.7</ele>
        <time>2012-10-29T13:53:07Z</time>
      </trkpt>
      <trkpt lat="40.22254" lon="9.6122">
        <ele>56.6</ele>
        <time>2012-10-29T13:53:34Z</time>
      </trkpt>
      <trkpt lat="40.22249" lon="9.61229">
        <ele>56.9</ele>
        <time>2012-10-29T13:53:44Z</time>
      </trkpt>
      <trkpt lat="40.22245" lon="9.61239">
        <ele>56.6</ele>
        <time>2012-10-29T13:53:47Z</time>
      </trkpt>
      <trkpt lat="40.22245" lon="9.61242">
        <ele>50.4</ele>
        <time>2012-10-29T13:53:52Z</time>
      </trkpt>
      <trkpt lat="40.22239" lon="9.61253">
        <ele>51.9</ele>
        <time>2012-10-29T13:54:01Z</time>
      </trkpt>
      <trkpt lat="40.22234" lon="9.61276">
        <ele>54.9</ele>
        <time>2012-10-29T13:54:19Z</time>
      </trkpt>
      <trkpt lat="40.22227" lon="9.61294">
        <ele>54.6</ele>
        <time>2012-10-29T13:54:35Z</time>
      </trkpt>
      <trkpt lat="40.22227" lon="9.61301">
        <ele>55.3</ele>
        <time>2012-10-29T13:54:40Z</time>
      </trkpt>
      <trkpt lat="40.22229" lon="9.6131">
        <ele>50.9</ele>
        <time>2012-10-29T13:54:47Z</time>
      </trkpt>
      <trkpt lat="40.22229" lon="9.61319">
        <ele>49.1</ele>
        <time>2012-10-29T13:54:49Z</time>
      </trkpt>
      <trkpt lat="40.22222" lon="9.61325">
        <ele>50.1</ele>
        <time>2012-10-29T13:54:55Z</time>
      </trkpt>
      <trkpt lat="40.22219" lon="9.61335">
        <ele>47.9</ele>
        <time>2012-10-29T13:55:03Z</time>
      </trkpt>
      <trkpt lat="40.2222" lon="9.61374">
        <ele>48.3</ele>
        <time>2012-10-29T13:55:28Z</time>
      </trkpt>
      <trkpt lat="40.22218" lon="9.61381">
        <ele>49.7</ele>
        <time>2012-10-29T13:55:34Z</time>
      </trkpt>
      <trkpt lat="40.22216" lon="9.61393">
        <ele>50.9</ele>
        <time>2012-10-29T13:55:41Z</time>
      </trkpt>
      <trkpt lat="40.22205" lon="9.61409">
        <ele>55.2</ele>
        <time>2012-10-29T13:55:56Z</time>
      </trkpt>
      <trkpt lat="40.22204" lon="9.61414">
        <ele>55.3</ele>
        <time>2012-10-29T13:55:58Z</time>
      </trkpt>
      <trkpt lat="40.22205" lon="9.61435">
        <ele>55.5</ele>
        <time>2012-10-29T13:56:06Z</time>
      </trkpt>
      <trkpt lat="40.22203" lon="9.61448">
        <ele>56.2</ele>
        <time>2012-10-29T13:56:13Z</time>
      </trkpt>
      <trkpt lat="40.22199" lon="9.61461">
        <ele>55.5</ele>
        <time>2012-10-29T13:56:23Z</time>
      </trkpt>
      <trkpt lat="40.22195" lon="9.61491">
        <ele>56.8</ele>
        <time>2012-10-29T13:56:43Z</time>
      </trkpt>
      <trkpt lat="40.22196" lon="9.61499">
        <ele>57.6</ele>
        <time>2012-10-29T13:56:49Z</time>
      </trkpt>
      <trkpt lat="40.2219" lon="9.61525">
        <ele>60.7</ele>
        <time>2012-10-29T13:57:07Z</time>
      </trkpt>
      <trkpt lat="40.22185" lon="9.61536">
        <ele>60.9</ele>
        <time>2012-10-29T13:57:15Z</time>
      </trkpt>
      <trkpt lat="40.22183" lon="9.61548">
        <ele>62.1</ele>
        <time>2012-10-29T13:57:24Z</time>
      </trkpt>
      <trkpt lat="40.22175" lon="9.61563">
        <ele>62.3</ele>
        <time>2012-10-29T13:57:31Z</time>
      </trkpt>
      <trkpt lat="40.2217" lon="9.61569">
        <ele>63.1</ele>
        <time>2012-10-29T13:57:34Z</time>
      </trkpt>
      <trkpt lat="40.22167" lon="9.61577">
        <ele>63.4</ele>
        <time>2012-10-29T13:57:37Z</time>
      </trkpt>
      <trkpt lat="40.22166" lon="9.61581">
        <ele>63.7</ele>
        <time>2012-10-29T13:57:39Z</time>
      </trkpt>
      <trkpt lat="40.22171" lon="9.61596">
        <ele>65.7</ele>
        <time>2012-10-29T13:57:47Z</time>
      </trkpt>
      <trkpt lat="40.22183" lon="9.61617">
        <ele>71.1</ele>
        <time>2012-10-29T13:58:01Z</time>
      </trkpt>
      <trkpt lat="40.22184" lon="9.61624">
        <ele>71.3</ele>
        <time>2012-10-29T13:58:05Z</time>
      </trkpt>
      <trkpt lat="40.22174" lon="9.61648">
        <ele>68.2</ele>
        <time>2012-10-29T13:58:16Z</time>
      </trkpt>
      <trkpt lat="40.2217" lon="9.61674">
        <ele>71.5</ele>
        <time>2012-10-29T13:58:32Z</time>
      </trkpt>
      <trkpt lat="40.2218" lon="9.61699">
        <ele>72</ele>
        <time>2012-10-29T13:58:46Z</time>
      </trkpt>
      <trkpt lat="40.22184" lon="9.61703">
        <ele>72.7</ele>
        <time>2012-10-29T13:58:57Z</time>
      </trkpt>
      <trkpt lat="40.22185" lon="9.61693">
        <ele>75.4</ele>
        <time>2012-10-29T13:59:44Z</time>
      </trkpt>
      <trkpt lat="40.22211" lon="9.61672">
        <ele>62.3</ele>
        <time>2012-10-29T13:59:51Z</time>
      </trkpt>
      <trkpt lat="40.22219" lon="9.6168">
        <ele>61.6</ele>
        <time>2012-10-29T13:59:52Z</time>
      </trkpt>
      <trkpt lat="40.22244" lon="9.61686">
        <ele>76.5</ele>
        <time>2012-10-29T13:59:58Z</time>
      </trkpt>
      <trkpt lat="40.22249" lon="9.61685">
        <ele>84.2</ele>
        <time>2012-10-29T14:00:01Z</time>
      </trkpt>
      <trkpt lat="40.22254" lon="9.61686">
        <ele>96.8</ele>
        <time>2012-10-29T14:00:05Z</time>
      </trkpt>
      <trkpt lat="40.22258" lon="9.6169">
        <ele>101</ele>
        <time>2012-10-29T14:00:08Z</time>
      </trkpt>
      <trkpt lat="40.22258" lon="9.61695">
        <ele>95.9</ele>
        <time>2012-10-29T14:00:11Z</time>
      </trkpt>
      <trkpt lat="40.22253" lon="9.61702">
        <ele>95.6</ele>
        <time>2012-10-29T14:00:16Z</time>
      </trkpt>
      <trkpt lat="40.22252" lon="9.61708">
        <ele>96.2</ele>
        <time>2012-10-29T14:00:21Z</time>
      </trkpt>
      <trkpt lat="40.22261" lon="9.61724">
        <ele>103.1</ele>
        <time>2012-10-29T14:00:34Z</time>
      </trkpt>
      <trkpt lat="40.22268" lon="9.6173">
        <ele>108.1</ele>
        <time>2012-10-29T14:00:41Z</time>
      </trkpt>
      <trkpt lat="40.22271" lon="9.61737">
        <ele>108.6</ele>
        <time>2012-10-29T14:00:47Z</time>
      </trkpt>
      <trkpt lat="40.2227" lon="9.61742">
        <ele>101.5</ele>
        <time>2012-10-29T14:00:51Z</time>
      </trkpt>
      <trkpt lat="40.22256" lon="9.61761">
        <ele>87.1</ele>
        <time>2012-10-29T14:01:00Z</time>
      </trkpt>
      <trkpt lat="40.22252" lon="9.61767">
        <ele>82.1</ele>
        <time>2012-10-29T14:01:05Z</time>
      </trkpt>
      <trkpt lat="40.22252" lon="9.61775">
        <ele>79.1</ele>
        <time>2012-10-29T14:01:11Z</time>
      </trkpt>
      <trkpt lat="40.22256" lon="9.61785">
        <ele>72.4</ele>
        <time>2012-10-29T14:01:20Z</time>
      </trkpt>
      <trkpt lat="40.22266" lon="9.6179">
        <ele>61.2</ele>
        <time>2012-10-29T14:01:31Z</time>
      </trkpt>
      <trkpt lat="40.22274" lon="9.61801">
        <ele>59.3</ele>
        <time>2012-10-29T14:01:37Z</time>
      </trkpt>
      <trkpt lat="40.22282" lon="9.61804">
        <ele>57</ele>
        <time>2012-10-29T14:01:44Z</time>
      </trkpt>
      <trkpt lat="40.22284" lon="9.61811">
        <ele>56.4</ele>
        <time>2012-10-29T14:01:48Z</time>
      </trkpt>
      <trkpt lat="40.22287" lon="9.61816">
        <ele>56.7</ele>
        <time>2012-10-29T14:01:52Z</time>
      </trkpt>
      <trkpt lat="40.22296" lon="9.61821">
        <ele>55.8</ele>
        <time>2012-10-29T14:02:01Z</time>
      </trkpt>
      <trkpt lat="40.22298" lon="9.61825">
        <ele>55.7</ele>
        <time>2012-10-29T14:02:05Z</time>
      </trkpt>
      <trkpt lat="40.22302" lon="9.61838">
        <ele>54.4</ele>
        <time>2012-10-29T14:02:16Z</time>
      </trkpt>
      <trkpt lat="40.22306" lon="9.61842">
        <ele>54</ele>
        <time>2012-10-29T14:02:21Z</time>
      </trkpt>
      <trkpt lat="40.2232" lon="9.61871">
        <ele>55</ele>
        <time>2012-10-29T14:02:35Z</time>
      </trkpt>
      <trkpt lat="40.22325" lon="9.61878">
        <ele>55.9</ele>
        <time>2012-10-29T14:02:39Z</time>
      </trkpt>
      <trkpt lat="40.22332" lon="9.61884">
        <ele>57.2</ele>
        <time>2012-10-29T14:02:44Z</time>
      </trkpt>
      <trkpt lat="40.22346" lon="9.61912">
        <ele>63</ele>
        <time>2012-10-29T14:02:50Z</time>
      </trkpt>
      <trkpt lat="40.22352" lon="9.61908">
        <ele>75.3</ele>
        <time>2012-10-29T14:02:57Z</time>
      </trkpt>
      <trkpt lat="40.22355" lon="9.6191">
        <ele>86.9</ele>
        <time>2012-10-29T14:03:01Z</time>
      </trkpt>
      <trkpt lat="40.22362" lon="9.6192">
        <ele>109.5</ele>
        <time>2012-10-29T14:03:11Z</time>
      </trkpt>
      <trkpt lat="40.22367" lon="9.61932">
        <ele>116.6</ele>
        <time>2012-10-29T14:03:19Z</time>
      </trkpt>
      <trkpt lat="40.22372" lon="9.6193">
        <ele>117.3</ele>
        <time>2012-10-29T14:03:24Z</time>
      </trkpt>
      <trkpt lat="40.22388" lon="9.61941">
        <ele>116.4</ele>
        <time>2012-10-29T14:03:39Z</time>
      </trkpt>
      <trkpt lat="40.22407" lon="9.61946">
        <ele>108.7</ele>
        <time>2012-10-29T14:03:51Z</time>
      </trkpt>
      <trkpt lat="40.22412" lon="9.61946">
        <ele>106.7</ele>
        <time>2012-10-29T14:03:54Z</time>
      </trkpt>
      <trkpt lat="40.22417" lon="9.61944">
        <ele>102.4</ele>
        <time>2012-10-29T14:03:58Z</time>
      </trkpt>
      <trkpt lat="40.2242" lon="9.61948">
        <ele>98</ele>
        <time>2012-10-29T14:04:08Z</time>
      </trkpt>
      <trkpt lat="40.22418" lon="9.61955">
        <ele>94.5</ele>
        <time>2012-10-29T14:04:15Z</time>
      </trkpt>
      <trkpt lat="40.2242" lon="9.61959">
        <ele>92.2</ele>
        <time>2012-10-29T14:04:23Z</time>
      </trkpt>
      <trkpt lat="40.22421" lon="9.61966">
        <ele>90.5</ele>
        <time>2012-10-29T14:04:32Z</time>
      </trkpt>
      <trkpt lat="40.22419" lon="9.61972">
        <ele>89.2</ele>
        <time>2012-10-29T14:04:36Z</time>
      </trkpt>
      <trkpt lat="40.22424" lon="9.61984">
        <ele>81</ele>
        <time>2012-10-29T14:04:48Z</time>
      </trkpt>
      <trkpt lat="40.22424" lon="9.6199">
        <ele>76.7</ele>
        <time>2012-10-29T14:04:54Z</time>
      </trkpt>
      <trkpt lat="40.22422" lon="9.61996">
        <ele>71.7</ele>
        <time>2012-10-29T14:05:00Z</time>
      </trkpt>
      <trkpt lat="40.22418" lon="9.61992">
        <ele>55.8</ele>
        <time>2012-10-29T14:06:03Z</time>
      </trkpt>
      <trkpt lat="40.22415" lon="9.61996">
        <ele>52.6</ele>
        <time>2012-10-29T14:06:14Z</time>
      </trkpt>
      <trkpt lat="40.22408" lon="9.62013">
        <ele>50.3</ele>
        <time>2012-10-29T14:06:47Z</time>
      </trkpt>
      <trkpt lat="40.22405" lon="9.62018">
        <ele>49.8</ele>
        <time>2012-10-29T14:06:52Z</time>
      </trkpt>
      <trkpt lat="40.22377" lon="9.62039">
        <ele>48.3</ele>
        <time>2012-10-29T14:07:16Z</time>
      </trkpt>
      <trkpt lat="40.22372" lon="9.62044">
        <ele>48.7</ele>
        <time>2012-10-29T14:07:21Z</time>
      </trkpt>
      <trkpt lat="40.2237" lon="9.62049">
        <ele>48.4</ele>
        <time>2012-10-29T14:07:24Z</time>
      </trkpt>
      <trkpt lat="40.2237" lon="9.62056">
        <ele>47.9</ele>
        <time>2012-10-29T14:07:28Z</time>
      </trkpt>
      <trkpt lat="40.22368" lon="9.62062">
        <ele>47.7</ele>
        <time>2012-10-29T14:07:33Z</time>
      </trkpt>
      <trkpt lat="40.22356" lon="9.62078">
        <ele>46.5</ele>
        <time>2012-10-29T14:07:46Z</time>
      </trkpt>
      <trkpt lat="40.22354" lon="9.62082">
        <ele>46.2</ele>
        <time>2012-10-29T14:07:49Z</time>
      </trkpt>
      <trkpt lat="40.22358" lon="9.62097">
        <ele>46.5</ele>
        <time>2012-10-29T14:07:57Z</time>
      </trkpt>
      <trkpt lat="40.22357" lon="9.62103">
        <ele>46.7</ele>
        <time>2012-10-29T14:08:01Z</time>
      </trkpt>
      <trkpt lat="40.22355" lon="9.62111">
        <ele>46.7</ele>
        <time>2012-10-29T14:08:06Z</time>
      </trkpt>
      <trkpt lat="40.22349" lon="9.6212">
        <ele>46.5</ele>
        <time>2012-10-29T14:08:16Z</time>
      </trkpt>
      <trkpt lat="40.22349" lon="9.62125">
        <ele>46</ele>
        <time>2012-10-29T14:08:23Z</time>
      </trkpt>
      <trkpt lat="40.22352" lon="9.62131">
        <ele>45.1</ele>
        <time>2012-10-29T14:08:41Z</time>
      </trkpt>
      <trkpt lat="40.22348" lon="9.62134">
        <ele>45</ele>
        <time>2012-10-29T14:08:49Z</time>
      </trkpt>
      <trkpt lat="40.22341" lon="9.62144">
        <ele>43.1</ele>
        <time>2012-10-29T14:09:20Z</time>
      </trkpt>
      <trkpt lat="40.22341" lon="9.62149">
        <ele>43</ele>
        <time>2012-10-29T14:09:29Z</time>
      </trkpt>
      <trkpt lat="40.22345" lon="9.62162">
        <ele>43.1</ele>
        <time>2012-10-29T14:09:39Z</time>
      </trkpt>
      <trkpt lat="40.22344" lon="9.62165">
        <ele>44.8</ele>
        <time>2012-10-29T14:10:17Z</time>
      </trkpt>
      <trkpt lat="40.22339" lon="9.62166">
        <ele>44.6</ele>
        <time>2012-10-29T14:10:20Z</time>
      </trkpt>
      <trkpt lat="40.22334" lon="9.6217">
        <ele>45.3</ele>
        <time>2012-10-29T14:10:22Z</time>
      </trkpt>
      <trkpt lat="40.22328" lon="9.62184">
        <ele>45.3</ele>
        <time>2012-10-29T14:10:28Z</time>
      </trkpt>
      <trkpt lat="40.22333" lon="9.62209">
        <ele>44.1</ele>
        <time>2012-10-29T14:10:43Z</time>
      </trkpt>
      <trkpt lat="40.22337" lon="9.62218">
        <ele>29.2</ele>
        <time>2012-10-29T14:10:48Z</time>
      </trkpt>
      <trkpt lat="40.22332" lon="9.62223">
        <ele>23.2</ele>
        <time>2012-10-29T14:10:49Z</time>
      </trkpt>
      <trkpt lat="40.22334" lon="9.62229">
        <ele>31.4</ele>
        <time>2012-10-29T14:10:52Z</time>
      </trkpt>
      <trkpt lat="40.22338" lon="9.62233">
        <ele>37.8</ele>
        <time>2012-10-29T14:10:57Z</time>
      </trkpt>
      <trkpt lat="40.22346" lon="9.62266">
        <ele>44.1</ele>
        <time>2012-10-29T14:11:26Z</time>
      </trkpt>
      <trkpt lat="40.22353" lon="9.62285">
        <ele>45.5</ele>
        <time>2012-10-29T14:11:38Z</time>
      </trkpt>
      <trkpt lat="40.22367" lon="9.62302">
        <ele>45</ele>
        <time>2012-10-29T14:11:53Z</time>
      </trkpt>
      <trkpt lat="40.22372" lon="9.62306">
        <ele>43.6</ele>
        <time>2012-10-29T14:11:57Z</time>
      </trkpt>
      <trkpt lat="40.22392" lon="9.62312">
        <ele>43.5</ele>
        <time>2012-10-29T14:12:10Z</time>
      </trkpt>
      <trkpt lat="40.22402" lon="9.62321">
        <ele>43.7</ele>
        <time>2012-10-29T14:12:19Z</time>
      </trkpt>
      <trkpt lat="40.22412" lon="9.62335">
        <ele>43.1</ele>
        <time>2012-10-29T14:12:30Z</time>
      </trkpt>
      <trkpt lat="40.2242" lon="9.62351">
        <ele>41.1</ele>
        <time>2012-10-29T14:12:43Z</time>
      </trkpt>
      <trkpt lat="40.22422" lon="9.62357">
        <ele>40.9</ele>
        <time>2012-10-29T14:13:19Z</time>
      </trkpt>
      <trkpt lat="40.22426" lon="9.62357">
        <ele>43.6</ele>
        <time>2012-10-29T14:15:57Z</time>
      </trkpt>
      <trkpt lat="40.22438" lon="9.62374">
        <ele>43.9</ele>
        <time>2012-10-29T14:16:07Z</time>
      </trkpt>
      <trkpt lat="40.22443" lon="9.6239">
        <ele>44.7</ele>
        <time>2012-10-29T14:16:17Z</time>
      </trkpt>
      <trkpt lat="40.22459" lon="9.62413">
        <ele>44</ele>
        <time>2012-10-29T14:16:53Z</time>
      </trkpt>
      <trkpt lat="40.2245" lon="9.62435">
        <ele>44.3</ele>
        <time>2012-10-29T14:18:18Z</time>
      </trkpt>
      <trkpt lat="40.22443" lon="9.62448">
        <ele>45.3</ele>
        <time>2012-10-29T14:18:25Z</time>
      </trkpt>
      <trkpt lat="40.22445" lon="9.62461">
        <ele>45</ele>
        <time>2012-10-29T14:18:31Z</time>
      </trkpt>
      <trkpt lat="40.22444" lon="9.62485">
        <ele>45.2</ele>
        <time>2012-10-29T14:18:39Z</time>
      </trkpt>
      <trkpt lat="40.22443" lon="9.62491">
        <ele>46.2</ele>
        <time>2012-10-29T14:19:44Z</time>
      </trkpt>
      <trkpt lat="40.22448" lon="9.62493">
        <ele>45.7</ele>
        <time>2012-10-29T14:20:54Z</time>
      </trkpt>
      <trkpt lat="40.22425" lon="9.62541">
        <ele>49.9</ele>
        <time>2012-10-29T14:21:10Z</time>
      </trkpt>
      <trkpt lat="40.22426" lon="9.62581">
        <ele>47.2</ele>
        <time>2012-10-29T14:21:20Z</time>
      </trkpt>
      <trkpt lat="40.22428" lon="9.62592">
        <ele>45</ele>
        <time>2012-10-29T14:21:42Z</time>
      </trkpt>
      <trkpt lat="40.22427" lon="9.62611">
        <ele>46.2</ele>
        <time>2012-10-29T14:21:49Z</time>
      </trkpt>
      <trkpt lat="40.22428" lon="9.62616">
        <ele>46.2</ele>
        <time>2012-10-29T14:21:50Z</time>
      </trkpt>
      <trkpt lat="40.22433" lon="9.6263">
        <ele>46.3</ele>
        <time>2012-10-29T14:21:55Z</time>
      </trkpt>
      <trkpt lat="40.22431" lon="9.62633">
        <ele>46.4</ele>
        <time>2012-10-29T14:21:56Z</time>
      </trkpt>
      <trkpt lat="40.22441" lon="9.62647">
        <ele>53.1</ele>
        <time>2012-10-29T14:26:23Z</time>
      </trkpt>
      <trkpt lat="40.22448" lon="9.62646">
        <ele>41</ele>
        <time>2012-10-29T14:29:15Z</time>
      </trkpt>
      <trkpt lat="40.22453" lon="9.62657">
        <ele>41.7</ele>
        <time>2012-10-29T14:29:28Z</time>
      </trkpt>
      <trkpt lat="40.22467" lon="9.62673">
        <ele>42.8</ele>
        <time>2012-10-29T14:30:02Z</time>
      </trkpt>
      <trkpt lat="40.22477" lon="9.62676">
        <ele>42.5</ele>
        <time>2012-10-29T14:33:03Z</time>
      </trkpt>
      <trkpt lat="40.22481" lon="9.62678">
        <ele>42.9</ele>
        <time>2012-10-29T14:33:09Z</time>
      </trkpt>
      <trkpt lat="40.22482" lon="9.62677">
        <ele>43</ele>
        <time>2012-10-29T14:33:43Z</time>
      </trkpt>
    </trkseg>
  </trk>
</gpx>